﻿<?xml version="1.0" encoding="utf-8"?><gpx creator="Garmin Desktop App" version="1.1" xsi:schemaLocation="http://www.topografix.com/GPX/1/1 http://www.topografix.com/GPX/1/1/gpx.xsd http://www.garmin.com/xmlschemas/WaypointExtension/v1 http://www8.garmin.com/xmlschemas/WaypointExtensionv1.xsd http://www.garmin.com/xmlschemas/TrackPointExtension/v1 http://www.garmin.com/xmlschemas/TrackPointExtensionv1.xsd http://www.garmin.com/xmlschemas/GpxExtensions/v3 http://www8.garmin.com/xmlschemas/GpxExtensionsv3.xsd http://www.garmin.com/xmlschemas/ActivityExtension/v1 http://www8.garmin.com/xmlschemas/ActivityExtensionv1.xsd http://www.garmin.com/xmlschemas/AdventuresExtensions/v1 http://www8.garmin.com/xmlschemas/AdventuresExtensionv1.xsd http://www.garmin.com/xmlschemas/PressureExtension/v1 http://www.garmin.com/xmlschemas/PressureExtensionv1.xsd http://www.garmin.com/xmlschemas/TripExtensions/v1 http://www.garmin.com/xmlschemas/TripExtensionsv1.xsd http://www.garmin.com/xmlschemas/TripMetaDataExtensions/v1 http://www.garmin.com/xmlschemas/TripMetaDataExtensionsv1.xsd http://www.garmin.com/xmlschemas/ViaPointTransportationModeExtensions/v1 http://www.garmin.com/xmlschemas/ViaPointTransportationModeExtensionsv1.xsd http://www.garmin.com/xmlschemas/CreationTimeExtension/v1 http://www.garmin.com/xmlschemas/CreationTimeExtensionsv1.xsd http://www.garmin.com/xmlschemas/AccelerationExtension/v1 http://www.garmin.com/xmlschemas/AccelerationExtensionv1.xsd http://www.garmin.com/xmlschemas/PowerExtension/v1 http://www.garmin.com/xmlschemas/PowerExtensionv1.xsd http://www.garmin.com/xmlschemas/VideoExtension/v1 http://www.garmin.com/xmlschemas/VideoExtensionv1.xsd" xmlns="http://www.topografix.com/GPX/1/1" xmlns:xsi="http://www.w3.org/2001/XMLSchema-instance" xmlns:wptx1="http://www.garmin.com/xmlschemas/WaypointExtension/v1" xmlns:gpxtrx="http://www.garmin.com/xmlschemas/GpxExtensions/v3" xmlns:gpxtpx="http://www.garmin.com/xmlschemas/TrackPointExtension/v1" xmlns:gpxx="http://www.garmin.com/xmlschemas/GpxExtensions/v3" xmlns:trp="http://www.garmin.com/xmlschemas/TripExtensions/v1" xmlns:adv="http://www.garmin.com/xmlschemas/AdventuresExtensions/v1" xmlns:prs="http://www.garmin.com/xmlschemas/PressureExtension/v1" xmlns:tmd="http://www.garmin.com/xmlschemas/TripMetaDataExtensions/v1" xmlns:vptm="http://www.garmin.com/xmlschemas/ViaPointTransportationModeExtensions/v1" xmlns:ctx="http://www.garmin.com/xmlschemas/CreationTimeExtension/v1" xmlns:gpxacc="http://www.garmin.com/xmlschemas/AccelerationExtension/v1" xmlns:gpxpx="http://www.garmin.com/xmlschemas/PowerExtension/v1" xmlns:vidx1="http://www.garmin.com/xmlschemas/VideoExtension/v1">

  <metadata>
    <link href="http://www.garmin.com">
      <text>Garmin International</text>
    </link>
    <time>2021-11-01T09:00:03Z</time>
    <bounds maxlat="46.258271271362901" maxlon="8.333647130057216" minlat="46.253951489925385" minlon="8.327801842242479" />
  </metadata>

  <trk>
    <name>Orrido Uriezzo 24.10.2021</name>
    <extensions>
      <gpxx:TrackExtension>
        <gpxx:DisplayColor>DarkGray</gpxx:DisplayColor>
      </gpxx:TrackExtension>
    </extensions>
    <trkseg>
      <trkpt lat="46.258181584998965" lon="8.333490053191781">
        <ele>632.24000000000001</ele>
        <time>2021-10-24T08:36:57Z</time>
      </trkpt>
      <trkpt lat="46.258179489523172" lon="8.333481922745705">
        <ele>632.24000000000001</ele>
        <time>2021-10-24T08:36:58Z</time>
      </trkpt>
      <trkpt lat="46.258164150640368" lon="8.333438588306308">
        <ele>633.13999999999999</ele>
        <time>2021-10-24T08:37:04Z</time>
      </trkpt>
      <trkpt lat="46.258140178397298" lon="8.333370527252555">
        <ele>633.5</ele>
        <time>2021-10-24T08:37:10Z</time>
      </trkpt>
      <trkpt lat="46.258102124556899" lon="8.333304980769754">
        <ele>632.99000000000001</ele>
        <time>2021-10-24T08:37:16Z</time>
      </trkpt>
      <trkpt lat="46.258079744875431" lon="8.333243960514665">
        <ele>632.90999999999997</ele>
        <time>2021-10-24T08:37:21Z</time>
      </trkpt>
      <trkpt lat="46.258067842572927" lon="8.333219233900309">
        <ele>632.88999999999999</ele>
        <time>2021-10-24T08:37:23Z</time>
      </trkpt>
      <trkpt lat="46.258062645792961" lon="8.333205655217171">
        <ele>632.88999999999999</ele>
        <time>2021-10-24T08:37:24Z</time>
      </trkpt>
      <trkpt lat="46.258020484820008" lon="8.333109682425857">
        <ele>633.32000000000005</ele>
        <time>2021-10-24T08:37:31Z</time>
      </trkpt>
      <trkpt lat="46.257981928065419" lon="8.33300918340683">
        <ele>633.83000000000004</ele>
        <time>2021-10-24T08:37:37Z</time>
      </trkpt>
      <trkpt lat="46.257933564484119" lon="8.332887059077621">
        <ele>633.71000000000004</ele>
        <time>2021-10-24T08:37:45Z</time>
      </trkpt>
      <trkpt lat="46.257919482886791" lon="8.332862416282296">
        <ele>633.90999999999997</ele>
        <time>2021-10-24T08:37:47Z</time>
      </trkpt>
      <trkpt lat="46.257873298600316" lon="8.332695448771119">
        <ele>634.05999999999995</ele>
        <time>2021-10-24T08:37:59Z</time>
      </trkpt>
      <trkpt lat="46.257863827049732" lon="8.332627722993493">
        <ele>634.28999999999996</ele>
        <time>2021-10-24T08:38:08Z</time>
      </trkpt>
      <trkpt lat="46.25787103548646" lon="8.332631159573793">
        <ele>634.15999999999997</ele>
        <time>2021-10-24T08:38:20Z</time>
      </trkpt>
      <trkpt lat="46.257861480116844" lon="8.332626968622208">
        <ele>634.50999999999999</ele>
        <time>2021-10-24T08:38:27Z</time>
      </trkpt>
      <trkpt lat="46.257832646369934" lon="8.33257676102221">
        <ele>634.30999999999995</ele>
        <time>2021-10-24T08:38:34Z</time>
      </trkpt>
      <trkpt lat="46.257804483175278" lon="8.332495875656605">
        <ele>633.74000000000001</ele>
        <time>2021-10-24T08:38:44Z</time>
      </trkpt>
      <trkpt lat="46.257809931412339" lon="8.332481542602181">
        <ele>633.52999999999997</ele>
        <time>2021-10-24T08:38:58Z</time>
      </trkpt>
      <trkpt lat="46.257806327193975" lon="8.332451535388827">
        <ele>633.29999999999995</ele>
        <time>2021-10-24T08:39:07Z</time>
      </trkpt>
      <trkpt lat="46.257787887006998" lon="8.33239353261888">
        <ele>633.01999999999998</ele>
        <time>2021-10-24T08:39:16Z</time>
      </trkpt>
      <trkpt lat="46.25777087174356" lon="8.332337457686663">
        <ele>632.72000000000003</ele>
        <time>2021-10-24T08:39:24Z</time>
      </trkpt>
      <trkpt lat="46.257768776267767" lon="8.332325639203191">
        <ele>632.64999999999998</ele>
        <time>2021-10-24T08:39:25Z</time>
      </trkpt>
      <trkpt lat="46.257729381322861" lon="8.33220393396914">
        <ele>631.92999999999995</ele>
        <time>2021-10-24T08:39:35Z</time>
      </trkpt>
      <trkpt lat="46.257686885073781" lon="8.332073343917728">
        <ele>631.13</ele>
        <time>2021-10-24T08:39:45Z</time>
      </trkpt>
      <trkpt lat="46.257649250328541" lon="8.331960355862975">
        <ele>630.11000000000001</ele>
        <time>2021-10-24T08:39:54Z</time>
      </trkpt>
      <trkpt lat="46.257638521492481" lon="8.331922637298703">
        <ele>629.15999999999997</ele>
        <time>2021-10-24T08:40:02Z</time>
      </trkpt>
      <trkpt lat="46.257635084912181" lon="8.331910818815231">
        <ele>629.07000000000005</ele>
        <time>2021-10-24T08:40:03Z</time>
      </trkpt>
      <trkpt lat="46.257622931152582" lon="8.331877794116736">
        <ele>628.92999999999995</ele>
        <time>2021-10-24T08:40:05Z</time>
      </trkpt>
      <trkpt lat="46.257616141811013" lon="8.331859521567822">
        <ele>628.73000000000002</ele>
        <time>2021-10-24T08:40:06Z</time>
      </trkpt>
      <trkpt lat="46.257583117112517" lon="8.331752065569162">
        <ele>627.64999999999998</ele>
        <time>2021-10-24T08:40:14Z</time>
      </trkpt>
      <trkpt lat="46.257550930604339" lon="8.331655589863658">
        <ele>626.39999999999998</ele>
        <time>2021-10-24T08:40:23Z</time>
      </trkpt>
      <trkpt lat="46.257539698854089" lon="8.331623487174511">
        <ele>625.99000000000001</ele>
        <time>2021-10-24T08:40:27Z</time>
      </trkpt>
      <trkpt lat="46.257524695247412" lon="8.331570094451308">
        <ele>625.38999999999999</ele>
        <time>2021-10-24T08:40:31Z</time>
      </trkpt>
      <trkpt lat="46.257491419091821" lon="8.33145584911108">
        <ele>623.94000000000005</ele>
        <time>2021-10-24T08:40:41Z</time>
      </trkpt>
      <trkpt lat="46.257452946156263" lon="8.331344034522772">
        <ele>622.88</ele>
        <time>2021-10-24T08:40:50Z</time>
      </trkpt>
      <trkpt lat="46.257402487099171" lon="8.331190226599574">
        <ele>622.28999999999996</ele>
        <time>2021-10-24T08:41:01Z</time>
      </trkpt>
      <trkpt lat="46.257363259792328" lon="8.331054355949163">
        <ele>622.17999999999995</ele>
        <time>2021-10-24T08:41:10Z</time>
      </trkpt>
      <trkpt lat="46.257353452965617" lon="8.331022588536143">
        <ele>622.17999999999995</ele>
        <time>2021-10-24T08:41:13Z</time>
      </trkpt>
      <trkpt lat="46.257349178195" lon="8.331008087843657">
        <ele>622.17999999999995</ele>
        <time>2021-10-24T08:41:14Z</time>
      </trkpt>
      <trkpt lat="46.257344568148255" lon="8.33099165931344">
        <ele>622.20000000000005</ele>
        <time>2021-10-24T08:41:15Z</time>
      </trkpt>
      <trkpt lat="46.257325625047088" lon="8.330934746190906">
        <ele>622.13</ele>
        <time>2021-10-24T08:41:23Z</time>
      </trkpt>
      <trkpt lat="46.257321434095502" lon="8.330922843888402">
        <ele>622.14999999999998</ele>
        <time>2021-10-24T08:41:25Z</time>
      </trkpt>
      <trkpt lat="46.257316824048758" lon="8.330906834453344">
        <ele>622.15999999999997</ele>
        <time>2021-10-24T08:41:26Z</time>
      </trkpt>
      <trkpt lat="46.257312465459108" lon="8.330888729542494">
        <ele>622.16999999999996</ele>
        <time>2021-10-24T08:41:27Z</time>
      </trkpt>
      <trkpt lat="46.25730668194592" lon="8.330869367346168">
        <ele>622.17999999999995</ele>
        <time>2021-10-24T08:41:28Z</time>
      </trkpt>
      <trkpt lat="46.257300982251763" lon="8.330850088968873">
        <ele>622.17999999999995</ele>
        <time>2021-10-24T08:41:29Z</time>
      </trkpt>
      <trkpt lat="46.257295198738575" lon="8.330830056220293">
        <ele>622.17999999999995</ele>
        <time>2021-10-24T08:41:30Z</time>
      </trkpt>
      <trkpt lat="46.257289666682482" lon="8.330810777842999">
        <ele>622.17999999999995</ele>
        <time>2021-10-24T08:41:31Z</time>
      </trkpt>
      <trkpt lat="46.257284134626389" lon="8.330791583284736">
        <ele>622.19000000000005</ele>
        <time>2021-10-24T08:41:32Z</time>
      </trkpt>
      <trkpt lat="46.257240967825055" lon="8.330662250518799">
        <ele>622.45000000000005</ele>
        <time>2021-10-24T08:41:40Z</time>
      </trkpt>
      <trkpt lat="46.257205680012703" lon="8.330470724031329">
        <ele>622.76999999999998</ele>
        <time>2021-10-24T08:41:50Z</time>
      </trkpt>
      <trkpt lat="46.257202830165625" lon="8.33042973652482">
        <ele>622.85000000000002</ele>
        <time>2021-10-24T08:41:52Z</time>
      </trkpt>
      <trkpt lat="46.257203835994005" lon="8.330410039052367">
        <ele>622.89999999999998</ele>
        <time>2021-10-24T08:41:53Z</time>
      </trkpt>
      <trkpt lat="46.257205344736576" lon="8.330392185598612">
        <ele>622.97000000000003</ele>
        <time>2021-10-24T08:41:54Z</time>
      </trkpt>
      <trkpt lat="46.257208865135908" lon="8.330375170335174">
        <ele>623.02999999999997</ele>
        <time>2021-10-24T08:41:55Z</time>
      </trkpt>
      <trkpt lat="46.257226634770632" lon="8.330334518104792">
        <ele>623.24000000000001</ele>
        <time>2021-10-24T08:42:01Z</time>
      </trkpt>
      <trkpt lat="46.257230071350932" lon="8.330318843945861">
        <ele>623.24000000000001</ele>
        <time>2021-10-24T08:42:02Z</time>
      </trkpt>
      <trkpt lat="46.257233340293169" lon="8.330298559740186">
        <ele>623.24000000000001</ele>
        <time>2021-10-24T08:42:03Z</time>
      </trkpt>
      <trkpt lat="46.257238117977977" lon="8.330276599153876">
        <ele>623.23000000000002</ele>
        <time>2021-10-24T08:42:04Z</time>
      </trkpt>
      <trkpt lat="46.257243733853102" lon="8.330254470929503">
        <ele>623.20000000000005</ele>
        <time>2021-10-24T08:42:05Z</time>
      </trkpt>
      <trkpt lat="46.257249433547258" lon="8.330232175067067">
        <ele>623.16999999999996</ele>
        <time>2021-10-24T08:42:06Z</time>
      </trkpt>
      <trkpt lat="46.257259994745255" lon="8.330189175903797">
        <ele>623.09000000000003</ele>
        <time>2021-10-24T08:42:08Z</time>
      </trkpt>
      <trkpt lat="46.257263347506523" lon="8.330167718231678">
        <ele>623.04999999999995</ele>
        <time>2021-10-24T08:42:09Z</time>
      </trkpt>
      <trkpt lat="46.257267287001014" lon="8.33014726638794">
        <ele>623.01999999999998</ele>
        <time>2021-10-24T08:42:10Z</time>
      </trkpt>
      <trkpt lat="46.257273070514202" lon="8.330123629420996">
        <ele>622.98000000000002</ele>
        <time>2021-10-24T08:42:11Z</time>
      </trkpt>
      <trkpt lat="46.257278686389327" lon="8.330095550045371">
        <ele>622.78999999999996</ele>
        <time>2021-10-24T08:42:12Z</time>
      </trkpt>
      <trkpt lat="46.257280949503183" lon="8.330067219212651">
        <ele>622.60000000000002</ele>
        <time>2021-10-24T08:42:13Z</time>
      </trkpt>
      <trkpt lat="46.257279692217708" lon="8.33004123531282">
        <ele>622.34000000000003</ele>
        <time>2021-10-24T08:42:14Z</time>
      </trkpt>
      <trkpt lat="46.257279692217708" lon="8.330008881166577">
        <ele>621.62</ele>
        <time>2021-10-24T08:42:16Z</time>
      </trkpt>
      <trkpt lat="46.257276758551598" lon="8.329996727406979">
        <ele>621.23000000000002</ele>
        <time>2021-10-24T08:42:17Z</time>
      </trkpt>
      <trkpt lat="46.257273573428392" lon="8.32998113706708">
        <ele>620.91999999999996</ele>
        <time>2021-10-24T08:42:18Z</time>
      </trkpt>
      <trkpt lat="46.257267873734236" lon="8.329960266128182">
        <ele>620.62</ele>
        <time>2021-10-24T08:42:19Z</time>
      </trkpt>
      <trkpt lat="46.257265359163284" lon="8.329934952780604">
        <ele>620.35000000000002</ele>
        <time>2021-10-24T08:42:20Z</time>
      </trkpt>
      <trkpt lat="46.25726074911654" lon="8.3299127407372">
        <ele>620.09000000000003</ele>
        <time>2021-10-24T08:42:21Z</time>
      </trkpt>
      <trkpt lat="46.257248930633068" lon="8.329875525087118">
        <ele>619.09000000000003</ele>
        <time>2021-10-24T08:42:23Z</time>
      </trkpt>
      <trkpt lat="46.257244991138577" lon="8.329859683290124">
        <ele>618.80999999999995</ele>
        <time>2021-10-24T08:42:24Z</time>
      </trkpt>
      <trkpt lat="46.257243566215038" lon="8.329840488731861">
        <ele>618.50999999999999</ele>
        <time>2021-10-24T08:42:25Z</time>
      </trkpt>
      <trkpt lat="46.257223868742585" lon="8.329752394929528">
        <ele>616.88999999999999</ele>
        <time>2021-10-24T08:42:31Z</time>
      </trkpt>
      <trkpt lat="46.257203835994005" lon="8.329707635566592">
        <ele>615.54999999999995</ele>
        <time>2021-10-24T08:42:40Z</time>
      </trkpt>
      <trkpt lat="46.257196879014373" lon="8.329696655273438">
        <ele>615.34000000000003</ele>
        <time>2021-10-24T08:42:43Z</time>
      </trkpt>
      <trkpt lat="46.257173577323556" lon="8.329627169296145">
        <ele>614.76999999999998</ele>
        <time>2021-10-24T08:42:48Z</time>
      </trkpt>
      <trkpt lat="46.257081627845764" lon="8.329478893429041">
        <ele>613.19000000000005</ele>
        <time>2021-10-24T08:42:56Z</time>
      </trkpt>
      <trkpt lat="46.256982469931245" lon="8.329366240650415">
        <ele>611.38999999999999</ele>
        <time>2021-10-24T08:43:05Z</time>
      </trkpt>
      <trkpt lat="46.256971657276154" lon="8.329353835433722">
        <ele>611.23000000000002</ele>
        <time>2021-10-24T08:43:06Z</time>
      </trkpt>
      <trkpt lat="46.256946427747607" lon="8.329295329749584">
        <ele>610.22000000000003</ele>
        <time>2021-10-24T08:43:13Z</time>
      </trkpt>
      <trkpt lat="46.256951624527574" lon="8.329277979210019">
        <ele>609.79999999999995</ele>
        <time>2021-10-24T08:43:23Z</time>
      </trkpt>
      <trkpt lat="46.256940392777324" lon="8.329242942854762">
        <ele>609.66999999999996</ele>
        <time>2021-10-24T08:43:27Z</time>
      </trkpt>
      <trkpt lat="46.256937962025404" lon="8.329227017238736">
        <ele>609.62</ele>
        <time>2021-10-24T08:43:28Z</time>
      </trkpt>
      <trkpt lat="46.256934273988008" lon="8.329163482412696">
        <ele>609.37</ele>
        <time>2021-10-24T08:43:36Z</time>
      </trkpt>
      <trkpt lat="46.256919521838427" lon="8.32910749129951">
        <ele>609.32000000000005</ele>
        <time>2021-10-24T08:43:39Z</time>
      </trkpt>
      <trkpt lat="46.256847772747278" lon="8.328966591507196">
        <ele>609.17999999999995</ele>
        <time>2021-10-24T08:43:48Z</time>
      </trkpt>
      <trkpt lat="46.256808377802372" lon="8.328867852687836">
        <ele>609.53999999999996</ele>
        <time>2021-10-24T08:43:57Z</time>
      </trkpt>
      <trkpt lat="46.25680536031723" lon="8.328853687271476">
        <ele>609.54999999999995</ele>
        <time>2021-10-24T08:43:58Z</time>
      </trkpt>
      <trkpt lat="46.256797565147281" lon="8.328811777755618">
        <ele>609.66999999999996</ele>
        <time>2021-10-24T08:44:01Z</time>
      </trkpt>
      <trkpt lat="46.256760349497199" lon="8.328672973439097">
        <ele>609.88999999999999</ele>
        <time>2021-10-24T08:44:11Z</time>
      </trkpt>
      <trkpt lat="46.256729923188686" lon="8.32857046276331">
        <ele>610.09000000000003</ele>
        <time>2021-10-24T08:44:18Z</time>
      </trkpt>
      <trkpt lat="46.256704442203045" lon="8.328460492193699">
        <ele>610.29999999999995</ele>
        <time>2021-10-24T08:44:25Z</time>
      </trkpt>
      <trkpt lat="46.256672171875834" lon="8.328351024538279">
        <ele>610.46000000000004</ele>
        <time>2021-10-24T08:44:32Z</time>
      </trkpt>
      <trkpt lat="46.25666655600071" lon="8.328332835808396">
        <ele>610.5</ele>
        <time>2021-10-24T08:44:33Z</time>
      </trkpt>
      <trkpt lat="46.256608972325921" lon="8.328186990693212">
        <ele>611.25</ele>
        <time>2021-10-24T08:44:42Z</time>
      </trkpt>
      <trkpt lat="46.256584916263819" lon="8.328148517757654">
        <ele>611.73000000000002</ele>
        <time>2021-10-24T08:44:49Z</time>
      </trkpt>
      <trkpt lat="46.256539737805724" lon="8.328120522201061">
        <ele>611.64999999999998</ele>
        <time>2021-10-24T08:44:56Z</time>
      </trkpt>
      <trkpt lat="46.256528841331601" lon="8.328104093670845">
        <ele>610.5</ele>
        <time>2021-10-24T08:45:08Z</time>
      </trkpt>
      <trkpt lat="46.256523560732603" lon="8.328095376491547">
        <ele>610.46000000000004</ele>
        <time>2021-10-24T08:45:09Z</time>
      </trkpt>
      <trkpt lat="46.25651559792459" lon="8.328072661533952">
        <ele>610.00999999999999</ele>
        <time>2021-10-24T08:45:16Z</time>
      </trkpt>
      <trkpt lat="46.256501767784357" lon="8.328056316822767">
        <ele>609.76999999999998</ele>
        <time>2021-10-24T08:45:19Z</time>
      </trkpt>
      <trkpt lat="46.25648139975965" lon="8.328031087294221">
        <ele>608.99000000000001</ele>
        <time>2021-10-24T08:45:26Z</time>
      </trkpt>
      <trkpt lat="46.256435131654143" lon="8.328049276024103">
        <ele>607.77999999999997</ele>
        <time>2021-10-24T08:45:33Z</time>
      </trkpt>
      <trkpt lat="46.256432868540287" lon="8.328061178326607">
        <ele>605.95000000000005</ele>
        <time>2021-10-24T08:45:42Z</time>
      </trkpt>
      <trkpt lat="46.256414176896214" lon="8.328073667362332">
        <ele>604.92999999999995</ele>
        <time>2021-10-24T08:45:49Z</time>
      </trkpt>
      <trkpt lat="46.256392551586032" lon="8.328059334307909">
        <ele>603.08000000000004</ele>
        <time>2021-10-24T08:45:58Z</time>
      </trkpt>
      <trkpt lat="46.256405040621758" lon="8.328045755624771">
        <ele>602.32000000000005</ele>
        <time>2021-10-24T08:46:04Z</time>
      </trkpt>
      <trkpt lat="46.256415937095881" lon="8.328070146963">
        <ele>601.75</ele>
        <time>2021-10-24T08:46:15Z</time>
      </trkpt>
      <trkpt lat="46.256415769457817" lon="8.328091772273183">
        <ele>600.58000000000004</ele>
        <time>2021-10-24T08:46:24Z</time>
      </trkpt>
      <trkpt lat="46.256409231573343" lon="8.328105853870511">
        <ele>600.29999999999995</ele>
        <time>2021-10-24T08:46:30Z</time>
      </trkpt>
      <trkpt lat="46.25640319660306" lon="8.328103171661496">
        <ele>598.98000000000002</ele>
        <time>2021-10-24T08:46:44Z</time>
      </trkpt>
      <trkpt lat="46.25636413693428" lon="8.328095879405737">
        <ele>597.97000000000003</ele>
        <time>2021-10-24T08:46:53Z</time>
      </trkpt>
      <trkpt lat="46.256372351199389" lon="8.328105267137289">
        <ele>597.78999999999996</ele>
        <time>2021-10-24T08:47:01Z</time>
      </trkpt>
      <trkpt lat="46.256363969296217" lon="8.32811557687819">
        <ele>597.71000000000004</ele>
        <time>2021-10-24T08:47:10Z</time>
      </trkpt>
      <trkpt lat="46.256322395056486" lon="8.328095795586705">
        <ele>596.92999999999995</ele>
        <time>2021-10-24T08:47:19Z</time>
      </trkpt>
      <trkpt lat="46.256301775574684" lon="8.32803494296968">
        <ele>596.97000000000003</ele>
        <time>2021-10-24T08:47:32Z</time>
      </trkpt>
      <trkpt lat="46.256278976798058" lon="8.328022370114923">
        <ele>596.82000000000005</ele>
        <time>2021-10-24T08:47:44Z</time>
      </trkpt>
      <trkpt lat="46.256198342889547" lon="8.328121528029442">
        <ele>596.17999999999995</ele>
        <time>2021-10-24T08:48:08Z</time>
      </trkpt>
      <trkpt lat="46.256194654852152" lon="8.328104261308909">
        <ele>595.92999999999995</ele>
        <time>2021-10-24T08:48:16Z</time>
      </trkpt>
      <trkpt lat="46.256217118352652" lon="8.32806034013629">
        <ele>596.14999999999998</ele>
        <time>2021-10-24T08:48:24Z</time>
      </trkpt>
      <trkpt lat="46.256232457235456" lon="8.32805304788053">
        <ele>596.13</ele>
        <time>2021-10-24T08:48:33Z</time>
      </trkpt>
      <trkpt lat="46.256226422265172" lon="8.328040642663837">
        <ele>596.20000000000005</ele>
        <time>2021-10-24T08:48:45Z</time>
      </trkpt>
      <trkpt lat="46.256230194121599" lon="8.328030668199062">
        <ele>596.32000000000005</ele>
        <time>2021-10-24T08:49:03Z</time>
      </trkpt>
      <trkpt lat="46.256225416436791" lon="8.327988674864173">
        <ele>596.65999999999997</ele>
        <time>2021-10-24T08:49:22Z</time>
      </trkpt>
      <trkpt lat="46.256235642358661" lon="8.327980376780033">
        <ele>596.65999999999997</ele>
        <time>2021-10-24T08:49:41Z</time>
      </trkpt>
      <trkpt lat="46.256229942664504" lon="8.32797828130424">
        <ele>596.65999999999997</ele>
        <time>2021-10-24T08:49:42Z</time>
      </trkpt>
      <trkpt lat="46.256188871338964" lon="8.328034523874521">
        <ele>596.60000000000002</ele>
        <time>2021-10-24T08:49:47Z</time>
      </trkpt>
      <trkpt lat="46.256195828318596" lon="8.328025974333286">
        <ele>597.98000000000002</ele>
        <time>2021-10-24T08:49:53Z</time>
      </trkpt>
      <trkpt lat="46.256183590739965" lon="8.328021364286542">
        <ele>596.74000000000001</ele>
        <time>2021-10-24T08:49:55Z</time>
      </trkpt>
      <trkpt lat="46.256127264350653" lon="8.32806427963078">
        <ele>596.53999999999996</ele>
        <time>2021-10-24T08:50:05Z</time>
      </trkpt>
      <trkpt lat="46.256115529686213" lon="8.328051622956991">
        <ele>596.53999999999996</ele>
        <time>2021-10-24T08:50:09Z</time>
      </trkpt>
      <trkpt lat="46.256112847477198" lon="8.328036284074187">
        <ele>596.53999999999996</ele>
        <time>2021-10-24T08:50:10Z</time>
      </trkpt>
      <trkpt lat="46.256085522472858" lon="8.328019352629781">
        <ele>596.62</ele>
        <time>2021-10-24T08:50:18Z</time>
      </trkpt>
      <trkpt lat="46.256094658747315" lon="8.328042486682534">
        <ele>596.37</ele>
        <time>2021-10-24T08:50:29Z</time>
      </trkpt>
      <trkpt lat="46.256115362048149" lon="8.328076265752316">
        <ele>596.26999999999998</ele>
        <time>2021-10-24T08:50:38Z</time>
      </trkpt>
      <trkpt lat="46.256100945174694" lon="8.328039888292551">
        <ele>595.91999999999996</ele>
        <time>2021-10-24T08:50:49Z</time>
      </trkpt>
      <trkpt lat="46.25611343421042" lon="8.327975934371352">
        <ele>595.75</ele>
        <time>2021-10-24T08:51:00Z</time>
      </trkpt>
      <trkpt lat="46.25606213696301" lon="8.32795724272728">
        <ele>595.53999999999996</ele>
        <time>2021-10-24T08:51:08Z</time>
      </trkpt>
      <trkpt lat="46.256056185811758" lon="8.328005354851484">
        <ele>595.32000000000005</ele>
        <time>2021-10-24T08:51:21Z</time>
      </trkpt>
      <trkpt lat="46.256098346784711" lon="8.327955147251487">
        <ele>595.47000000000003</ele>
        <time>2021-10-24T08:51:31Z</time>
      </trkpt>
      <trkpt lat="46.256043193861842" lon="8.327972078695893">
        <ele>595.59000000000003</ele>
        <time>2021-10-24T08:51:40Z</time>
      </trkpt>
      <trkpt lat="46.256032465025783" lon="8.327993871644139">
        <ele>595.52999999999997</ele>
        <time>2021-10-24T08:51:41Z</time>
      </trkpt>
      <trkpt lat="46.256005391478539" lon="8.328062519431114">
        <ele>595.38</ele>
        <time>2021-10-24T08:51:45Z</time>
      </trkpt>
      <trkpt lat="46.255950992926955" lon="8.328130664303899">
        <ele>594.99000000000001</ele>
        <time>2021-10-24T08:51:49Z</time>
      </trkpt>
      <trkpt lat="46.255947723984718" lon="8.328181290999055">
        <ele>594.63999999999999</ele>
        <time>2021-10-24T08:51:57Z</time>
      </trkpt>
      <trkpt lat="46.255906820297241" lon="8.328225463628769">
        <ele>594.07000000000005</ele>
        <time>2021-10-24T08:52:13Z</time>
      </trkpt>
      <trkpt lat="46.25588427297771" lon="8.328245664015412">
        <ele>592</ele>
        <time>2021-10-24T08:52:23Z</time>
      </trkpt>
      <trkpt lat="46.255863234400749" lon="8.328206269070506">
        <ele>591.24000000000001</ele>
        <time>2021-10-24T08:52:34Z</time>
      </trkpt>
      <trkpt lat="46.25585594214499" lon="8.328184643760324">
        <ele>590.64999999999998</ele>
        <time>2021-10-24T08:52:40Z</time>
      </trkpt>
      <trkpt lat="46.255808919668198" lon="8.328189086169004">
        <ele>590.09000000000003</ele>
        <time>2021-10-24T08:52:43Z</time>
      </trkpt>
      <trkpt lat="46.255795424804091" lon="8.328182548284531">
        <ele>589.90999999999997</ele>
        <time>2021-10-24T08:52:44Z</time>
      </trkpt>
      <trkpt lat="46.255816463381052" lon="8.328134436160326">
        <ele>588.74000000000001</ele>
        <time>2021-10-24T08:52:54Z</time>
      </trkpt>
      <trkpt lat="46.255820654332638" lon="8.328082049265504">
        <ele>587.00999999999999</ele>
        <time>2021-10-24T08:53:03Z</time>
      </trkpt>
      <trkpt lat="46.255822749808431" lon="8.328203922137618">
        <ele>585.71000000000004</ele>
        <time>2021-10-24T08:53:10Z</time>
      </trkpt>
      <trkpt lat="46.255829371511936" lon="8.328238036483526">
        <ele>585.64999999999998</ele>
        <time>2021-10-24T08:53:11Z</time>
      </trkpt>
      <trkpt lat="46.255812356248498" lon="8.328269636258483">
        <ele>585.51999999999998</ele>
        <time>2021-10-24T08:53:13Z</time>
      </trkpt>
      <trkpt lat="46.255768267437816" lon="8.328222697600722">
        <ele>585.27999999999997</ele>
        <time>2021-10-24T08:53:19Z</time>
      </trkpt>
      <trkpt lat="46.255752928555012" lon="8.328201156109572">
        <ele>585.19000000000005</ele>
        <time>2021-10-24T08:53:24Z</time>
      </trkpt>
      <trkpt lat="46.255741864442825" lon="8.328193193301559">
        <ele>585.15999999999997</ele>
        <time>2021-10-24T08:53:25Z</time>
      </trkpt>
      <trkpt lat="46.255728537216783" lon="8.328190846368671">
        <ele>585.08000000000004</ele>
        <time>2021-10-24T08:53:26Z</time>
      </trkpt>
      <trkpt lat="46.255712695419788" lon="8.328183721750975">
        <ele>584.99000000000001</ele>
        <time>2021-10-24T08:53:27Z</time>
      </trkpt>
      <trkpt lat="46.255697021260858" lon="8.328173328191042">
        <ele>584.90999999999997</ele>
        <time>2021-10-24T08:53:28Z</time>
      </trkpt>
      <trkpt lat="46.255627870559692" lon="8.328029830008745">
        <ele>584.65999999999997</ele>
        <time>2021-10-24T08:53:34Z</time>
      </trkpt>
      <trkpt lat="46.255605323240161" lon="8.328012647107244">
        <ele>584.63</ele>
        <time>2021-10-24T08:53:35Z</time>
      </trkpt>
      <trkpt lat="46.255578082054853" lon="8.327957661822438">
        <ele>584.58000000000004</ele>
        <time>2021-10-24T08:53:39Z</time>
      </trkpt>
      <trkpt lat="46.255613956600428" lon="8.328057238832116">
        <ele>584.27999999999997</ele>
        <time>2021-10-24T08:53:46Z</time>
      </trkpt>
      <trkpt lat="46.255594259127975" lon="8.328185649588704">
        <ele>584.01999999999998</ele>
        <time>2021-10-24T08:53:54Z</time>
      </trkpt>
      <trkpt lat="46.255590654909611" lon="8.32819813862443">
        <ele>583.74000000000001</ele>
        <time>2021-10-24T08:54:03Z</time>
      </trkpt>
      <trkpt lat="46.255587050691247" lon="8.328256728127599">
        <ele>583.61000000000001</ele>
        <time>2021-10-24T08:54:12Z</time>
      </trkpt>
      <trkpt lat="46.25558034516871" lon="8.328432664275169">
        <ele>583.41999999999996</ele>
        <time>2021-10-24T08:54:18Z</time>
      </trkpt>
      <trkpt lat="46.255554864183068" lon="8.328528050333262">
        <ele>583.20000000000005</ele>
        <time>2021-10-24T08:54:25Z</time>
      </trkpt>
      <trkpt lat="46.255564335733652" lon="8.328553782775998">
        <ele>583.16999999999996</ele>
        <time>2021-10-24T08:54:33Z</time>
      </trkpt>
      <trkpt lat="46.255592163652182" lon="8.328595692291856">
        <ele>583.63</ele>
        <time>2021-10-24T08:54:40Z</time>
      </trkpt>
      <trkpt lat="46.255602389574051" lon="8.328612288460136">
        <ele>583.98000000000002</ele>
        <time>2021-10-24T08:54:57Z</time>
      </trkpt>
      <trkpt lat="46.2556067481637" lon="8.328599464148283">
        <ele>583.96000000000004</ele>
        <time>2021-10-24T08:55:14Z</time>
      </trkpt>
      <trkpt lat="46.255599036812782" lon="8.328614132478833">
        <ele>583.99000000000001</ele>
        <time>2021-10-24T08:55:26Z</time>
      </trkpt>
      <trkpt lat="46.255634156987071" lon="8.328578257933259">
        <ele>583.65999999999997</ele>
        <time>2021-10-24T08:55:41Z</time>
      </trkpt>
      <trkpt lat="46.255651423707604" lon="8.328558392822743">
        <ele>583.79999999999995</ele>
        <time>2021-10-24T08:55:54Z</time>
      </trkpt>
      <trkpt lat="46.255636252462864" lon="8.328540120273829">
        <ele>583.69000000000005</ele>
        <time>2021-10-24T08:56:09Z</time>
      </trkpt>
      <trkpt lat="46.255622589960694" lon="8.328522434458137">
        <ele>583.62</ele>
        <time>2021-10-24T08:56:20Z</time>
      </trkpt>
      <trkpt lat="46.255602221935987" lon="8.328528637066484">
        <ele>583.73000000000002</ele>
        <time>2021-10-24T08:56:30Z</time>
      </trkpt>
      <trkpt lat="46.255605993792415" lon="8.328551184386015">
        <ele>583.73000000000002</ele>
        <time>2021-10-24T08:56:40Z</time>
      </trkpt>
      <trkpt lat="46.255614459514618" lon="8.32855629734695">
        <ele>583.73000000000002</ele>
        <time>2021-10-24T08:56:52Z</time>
      </trkpt>
      <trkpt lat="46.255610939115286" lon="8.328589573502541">
        <ele>583.73000000000002</ele>
        <time>2021-10-24T08:57:04Z</time>
      </trkpt>
      <trkpt lat="46.25560867600143" lon="8.328584125265479">
        <ele>583.73000000000002</ele>
        <time>2021-10-24T08:57:13Z</time>
      </trkpt>
      <trkpt lat="46.25558034516871" lon="8.328556884080172">
        <ele>583.73000000000002</ele>
        <time>2021-10-24T08:57:25Z</time>
      </trkpt>
      <trkpt lat="46.25557841733098" lon="8.328532073646784">
        <ele>583.73000000000002</ele>
        <time>2021-10-24T08:57:35Z</time>
      </trkpt>
      <trkpt lat="46.255584452301264" lon="8.328517321497202">
        <ele>583.73000000000002</ele>
        <time>2021-10-24T08:57:52Z</time>
      </trkpt>
      <trkpt lat="46.255577243864536" lon="8.328492762520909">
        <ele>583.73000000000002</ele>
        <time>2021-10-24T08:58:09Z</time>
      </trkpt>
      <trkpt lat="46.255574226379395" lon="8.328498881310225">
        <ele>583.73000000000002</ele>
        <time>2021-10-24T08:58:22Z</time>
      </trkpt>
      <trkpt lat="46.25556324608624" lon="8.328507598489523">
        <ele>583.73000000000002</ele>
        <time>2021-10-24T08:58:39Z</time>
      </trkpt>
      <trkpt lat="46.255567856132984" lon="8.328540455549955">
        <ele>583.73000000000002</ele>
        <time>2021-10-24T08:58:53Z</time>
      </trkpt>
      <trkpt lat="46.255569281056523" lon="8.328544646501541">
        <ele>583.73000000000002</ele>
        <time>2021-10-24T08:59:05Z</time>
      </trkpt>
      <trkpt lat="46.255575232207775" lon="8.328538024798036">
        <ele>583.73000000000002</ele>
        <time>2021-10-24T08:59:21Z</time>
      </trkpt>
      <trkpt lat="46.255574226379395" lon="8.32854607142508">
        <ele>583.73000000000002</ele>
        <time>2021-10-24T08:59:34Z</time>
      </trkpt>
      <trkpt lat="46.255576992407441" lon="8.328533079475164">
        <ele>583.73000000000002</ele>
        <time>2021-10-24T08:59:45Z</time>
      </trkpt>
      <trkpt lat="46.255587553605437" lon="8.328514387831092">
        <ele>583.73000000000002</ele>
        <time>2021-10-24T09:00:01Z</time>
      </trkpt>
      <trkpt lat="46.255583697929978" lon="8.328525954857469">
        <ele>583.73000000000002</ele>
        <time>2021-10-24T09:00:12Z</time>
      </trkpt>
      <trkpt lat="46.255580177530646" lon="8.328537018969655">
        <ele>583.73000000000002</ele>
        <time>2021-10-24T09:00:36Z</time>
      </trkpt>
      <trkpt lat="46.255571041256189" lon="8.328540455549955">
        <ele>583.73000000000002</ele>
        <time>2021-10-24T09:00:48Z</time>
      </trkpt>
      <trkpt lat="46.255573555827141" lon="8.328540120273829">
        <ele>583.73000000000002</ele>
        <time>2021-10-24T09:00:57Z</time>
      </trkpt>
      <trkpt lat="46.255575148388743" lon="8.328517656773329">
        <ele>583.73000000000002</ele>
        <time>2021-10-24T09:01:09Z</time>
      </trkpt>
      <trkpt lat="46.255579087883234" lon="8.328490667045116">
        <ele>583.73000000000002</ele>
        <time>2021-10-24T09:01:22Z</time>
      </trkpt>
      <trkpt lat="46.255582524463534" lon="8.328488152474165">
        <ele>583.73000000000002</ele>
        <time>2021-10-24T09:01:39Z</time>
      </trkpt>
      <trkpt lat="46.255585374310613" lon="8.328493935987353">
        <ele>583.73000000000002</ele>
        <time>2021-10-24T09:01:49Z</time>
      </trkpt>
      <trkpt lat="46.255562324076891" lon="8.32854313775897">
        <ele>583.73000000000002</ele>
        <time>2021-10-24T09:01:59Z</time>
      </trkpt>
      <trkpt lat="46.255545476451516" lon="8.328554537147284">
        <ele>583.73000000000002</ele>
        <time>2021-10-24T09:02:01Z</time>
      </trkpt>
      <trkpt lat="46.255532735958695" lon="8.328569624572992">
        <ele>583.73000000000002</ele>
        <time>2021-10-24T09:02:02Z</time>
      </trkpt>
      <trkpt lat="46.25551831908524" lon="8.328590160235763">
        <ele>583.73000000000002</ele>
        <time>2021-10-24T09:02:03Z</time>
      </trkpt>
      <trkpt lat="46.255502142012119" lon="8.328609270974994">
        <ele>583.66999999999996</ele>
        <time>2021-10-24T09:02:04Z</time>
      </trkpt>
      <trkpt lat="46.255473392084241" lon="8.328655455261469">
        <ele>583.00999999999999</ele>
        <time>2021-10-24T09:02:07Z</time>
      </trkpt>
      <trkpt lat="46.255460819229484" lon="8.328665848821402">
        <ele>582.80999999999995</ele>
        <time>2021-10-24T09:02:08Z</time>
      </trkpt>
      <trkpt lat="46.255432488396764" lon="8.328688479959965">
        <ele>582.36000000000001</ele>
        <time>2021-10-24T09:02:10Z</time>
      </trkpt>
      <trkpt lat="46.255419496446848" lon="8.328694347292185">
        <ele>582.27999999999997</ele>
        <time>2021-10-24T09:02:11Z</time>
      </trkpt>
      <trkpt lat="46.255404660478234" lon="8.328699292615056">
        <ele>582.19000000000005</ele>
        <time>2021-10-24T09:02:12Z</time>
      </trkpt>
      <trkpt lat="46.255373228341341" lon="8.328708093613386">
        <ele>582.04999999999995</ele>
        <time>2021-10-24T09:02:14Z</time>
      </trkpt>
      <trkpt lat="46.255344646051526" lon="8.328730640932918">
        <ele>581.83000000000004</ele>
        <time>2021-10-24T09:02:20Z</time>
      </trkpt>
      <trkpt lat="46.255336180329323" lon="8.328758217394352">
        <ele>581.78999999999996</ele>
        <time>2021-10-24T09:02:23Z</time>
      </trkpt>
      <trkpt lat="46.255320338532329" lon="8.328772885724902">
        <ele>581.76999999999998</ele>
        <time>2021-10-24T09:02:25Z</time>
      </trkpt>
      <trkpt lat="46.255306843668222" lon="8.328778669238091">
        <ele>581.76999999999998</ele>
        <time>2021-10-24T09:02:26Z</time>
      </trkpt>
      <trkpt lat="46.255272226408124" lon="8.328803395852447">
        <ele>582.04999999999995</ele>
        <time>2021-10-24T09:02:31Z</time>
      </trkpt>
      <trkpt lat="46.255268454551697" lon="8.328823177143931">
        <ele>584.38</ele>
        <time>2021-10-24T09:02:39Z</time>
      </trkpt>
      <trkpt lat="46.255211038514972" lon="8.32875419408083">
        <ele>585.36000000000001</ele>
        <time>2021-10-24T09:02:46Z</time>
      </trkpt>
      <trkpt lat="46.255218079313636" lon="8.328770790249109">
        <ele>586.38</ele>
        <time>2021-10-24T09:02:50Z</time>
      </trkpt>
      <trkpt lat="46.255230233073235" lon="8.32878302782774">
        <ele>586.60000000000002</ele>
        <time>2021-10-24T09:02:51Z</time>
      </trkpt>
      <trkpt lat="46.255272645503283" lon="8.328849244862795">
        <ele>587.08000000000004</ele>
        <time>2021-10-24T09:02:55Z</time>
      </trkpt>
      <trkpt lat="46.255301479250193" lon="8.328862739726901">
        <ele>587.5</ele>
        <time>2021-10-24T09:03:03Z</time>
      </trkpt>
      <trkpt lat="46.255312291905284" lon="8.3289007935673">
        <ele>587.5</ele>
        <time>2021-10-24T09:03:08Z</time>
      </trkpt>
      <trkpt lat="46.255317321047187" lon="8.328918647021055">
        <ele>587.5</ele>
        <time>2021-10-24T09:03:09Z</time>
      </trkpt>
      <trkpt lat="46.255334755405784" lon="8.32896675914526">
        <ele>587.49000000000001</ele>
        <time>2021-10-24T09:03:13Z</time>
      </trkpt>
      <trkpt lat="46.255345484241843" lon="8.328977236524224">
        <ele>587.47000000000003</ele>
        <time>2021-10-24T09:03:14Z</time>
      </trkpt>
      <trkpt lat="46.255357135087252" lon="8.32898972555995">
        <ele>587.44000000000005</ele>
        <time>2021-10-24T09:03:15Z</time>
      </trkpt>
      <trkpt lat="46.255367947742343" lon="8.329000286757946">
        <ele>587.38</ele>
        <time>2021-10-24T09:03:16Z</time>
      </trkpt>
      <trkpt lat="46.255379682406783" lon="8.329012859612703">
        <ele>587.35000000000002</ele>
        <time>2021-10-24T09:03:17Z</time>
      </trkpt>
      <trkpt lat="46.255431231111288" lon="8.329062229022384">
        <ele>587.32000000000005</ele>
        <time>2021-10-24T09:03:24Z</time>
      </trkpt>
      <trkpt lat="46.255447240546346" lon="8.329121572896838">
        <ele>587.48000000000002</ele>
        <time>2021-10-24T09:03:35Z</time>
      </trkpt>
      <trkpt lat="46.255467273294926" lon="8.32910162396729">
        <ele>587.46000000000004</ele>
        <time>2021-10-24T09:03:42Z</time>
      </trkpt>
      <trkpt lat="46.255467357113957" lon="8.329060133546591">
        <ele>587.37</ele>
        <time>2021-10-24T09:03:49Z</time>
      </trkpt>
      <trkpt lat="46.255487222224474" lon="8.329048147425056">
        <ele>587.15999999999997</ele>
        <time>2021-10-24T09:03:56Z</time>
      </trkpt>
      <trkpt lat="46.255504656583071" lon="8.329059882089496">
        <ele>587.11000000000001</ele>
        <time>2021-10-24T09:04:10Z</time>
      </trkpt>
      <trkpt lat="46.25552368350327" lon="8.329062983393669">
        <ele>587.16999999999996</ele>
        <time>2021-10-24T09:04:25Z</time>
      </trkpt>
      <trkpt lat="46.255537429824471" lon="8.32904395647347">
        <ele>587.20000000000005</ele>
        <time>2021-10-24T09:04:38Z</time>
      </trkpt>
      <trkpt lat="46.255538519471884" lon="8.329066336154938">
        <ele>587.24000000000001</ele>
        <time>2021-10-24T09:04:45Z</time>
      </trkpt>
      <trkpt lat="46.255558552220464" lon="8.329086871817708">
        <ele>587.04999999999995</ele>
        <time>2021-10-24T09:04:58Z</time>
      </trkpt>
      <trkpt lat="46.25554857775569" lon="8.329072454944253">
        <ele>587.21000000000004</ele>
        <time>2021-10-24T09:05:15Z</time>
      </trkpt>
      <trkpt lat="46.255543967708945" lon="8.329066252335906">
        <ele>587.12</ele>
        <time>2021-10-24T09:05:22Z</time>
      </trkpt>
      <trkpt lat="46.255556456744671" lon="8.329069186002016">
        <ele>587.03999999999996</ele>
        <time>2021-10-24T09:05:29Z</time>
      </trkpt>
      <trkpt lat="46.255570370703936" lon="8.329093158245087">
        <ele>587.04999999999995</ele>
        <time>2021-10-24T09:05:39Z</time>
      </trkpt>
      <trkpt lat="46.255550589412451" lon="8.329094583168626">
        <ele>587.04999999999995</ele>
        <time>2021-10-24T09:05:47Z</time>
      </trkpt>
      <trkpt lat="46.255534831434488" lon="8.32909039221704">
        <ele>587.04999999999995</ele>
        <time>2021-10-24T09:06:09Z</time>
      </trkpt>
      <trkpt lat="46.255512284114957" lon="8.329086033627391">
        <ele>587.04999999999995</ele>
        <time>2021-10-24T09:06:15Z</time>
      </trkpt>
      <trkpt lat="46.255497196689248" lon="8.329111598432064">
        <ele>587.04999999999995</ele>
        <time>2021-10-24T09:06:22Z</time>
      </trkpt>
      <trkpt lat="46.255469368770719" lon="8.329117549583316">
        <ele>587.04999999999995</ele>
        <time>2021-10-24T09:06:30Z</time>
      </trkpt>
      <trkpt lat="46.255437266081572" lon="8.329153675585985">
        <ele>587.04999999999995</ele>
        <time>2021-10-24T09:06:37Z</time>
      </trkpt>
      <trkpt lat="46.255428045988083" lon="8.329154681414366">
        <ele>587.04999999999995</ele>
        <time>2021-10-24T09:06:38Z</time>
      </trkpt>
      <trkpt lat="46.255386555567384" lon="8.329147137701511">
        <ele>586.88</ele>
        <time>2021-10-24T09:06:45Z</time>
      </trkpt>
      <trkpt lat="46.255386890843511" lon="8.329128446057439">
        <ele>586.75999999999999</ele>
        <time>2021-10-24T09:06:56Z</time>
      </trkpt>
      <trkpt lat="46.255389573052526" lon="8.329135235399008">
        <ele>586.78999999999996</ele>
        <time>2021-10-24T09:07:01Z</time>
      </trkpt>
      <trkpt lat="46.255384543910623" lon="8.329169182106853">
        <ele>586.78999999999996</ele>
        <time>2021-10-24T09:07:04Z</time>
      </trkpt>
      <trkpt lat="46.255380772054195" lon="8.329185526818037">
        <ele>586.78999999999996</ele>
        <time>2021-10-24T09:07:05Z</time>
      </trkpt>
      <trkpt lat="46.255375659093261" lon="8.329202542081475">
        <ele>586.76999999999998</ele>
        <time>2021-10-24T09:07:06Z</time>
      </trkpt>
      <trkpt lat="46.255363086238503" lon="8.3292340580374">
        <ele>586.72000000000003</ele>
        <time>2021-10-24T09:07:08Z</time>
      </trkpt>
      <trkpt lat="46.255354788154364" lon="8.329252079129219">
        <ele>586.74000000000001</ele>
        <time>2021-10-24T09:07:09Z</time>
      </trkpt>
      <trkpt lat="46.255345484241843" lon="8.329269932582974">
        <ele>586.80999999999995</ele>
        <time>2021-10-24T09:07:10Z</time>
      </trkpt>
      <trkpt lat="46.255338778719306" lon="8.329292396083474">
        <ele>586.85000000000002</ele>
        <time>2021-10-24T09:07:11Z</time>
      </trkpt>
      <trkpt lat="46.25530474819243" lon="8.329406641423702">
        <ele>586.87</ele>
        <time>2021-10-24T09:07:17Z</time>
      </trkpt>
      <trkpt lat="46.255292426794767" lon="8.329436061903834">
        <ele>586.70000000000005</ele>
        <time>2021-10-24T09:07:19Z</time>
      </trkpt>
      <trkpt lat="46.255280775949359" lon="8.329463889822364">
        <ele>586.51999999999998</ele>
        <time>2021-10-24T09:07:21Z</time>
      </trkpt>
      <trkpt lat="46.255271136760712" lon="8.329476043581963">
        <ele>586.46000000000004</ele>
        <time>2021-10-24T09:07:22Z</time>
      </trkpt>
      <trkpt lat="46.255260491743684" lon="8.329488448798657">
        <ele>586.38999999999999</ele>
        <time>2021-10-24T09:07:23Z</time>
      </trkpt>
      <trkpt lat="46.255245823413134" lon="8.329501273110509">
        <ele>586.34000000000003</ele>
        <time>2021-10-24T09:07:24Z</time>
      </trkpt>
      <trkpt lat="46.255231657996774" lon="8.329517282545567">
        <ele>586.30999999999995</ele>
        <time>2021-10-24T09:07:25Z</time>
      </trkpt>
      <trkpt lat="46.255218079313636" lon="8.329532956704497">
        <ele>586.27999999999997</ele>
        <time>2021-10-24T09:07:26Z</time>
      </trkpt>
      <trkpt lat="46.255207266658545" lon="8.329546451568604">
        <ele>586.26999999999998</ele>
        <time>2021-10-24T09:07:27Z</time>
      </trkpt>
      <trkpt lat="46.255198633298278" lon="8.32955994643271">
        <ele>586.23000000000002</ele>
        <time>2021-10-24T09:07:28Z</time>
      </trkpt>
      <trkpt lat="46.255192430689931" lon="8.329576877877116">
        <ele>586.19000000000005</ele>
        <time>2021-10-24T09:07:29Z</time>
      </trkpt>
      <trkpt lat="46.25514155253768" lon="8.329689027741551">
        <ele>586.07000000000005</ele>
        <time>2021-10-24T09:07:36Z</time>
      </trkpt>
      <trkpt lat="46.255060248076916" lon="8.329790029674768">
        <ele>585.69000000000005</ele>
        <time>2021-10-24T09:07:44Z</time>
      </trkpt>
      <trkpt lat="46.255027977749705" lon="8.329833280295134">
        <ele>585.39999999999998</ele>
        <time>2021-10-24T09:07:50Z</time>
      </trkpt>
      <trkpt lat="46.254971064627171" lon="8.329899748787284">
        <ele>585.13999999999999</ele>
        <time>2021-10-24T09:07:56Z</time>
      </trkpt>
      <trkpt lat="46.25488355755806" lon="8.330014580860734">
        <ele>584.80999999999995</ele>
        <time>2021-10-24T09:08:04Z</time>
      </trkpt>
      <trkpt lat="46.254847599193454" lon="8.330050120130181">
        <ele>584.67999999999995</ele>
        <time>2021-10-24T09:08:07Z</time>
      </trkpt>
      <trkpt lat="46.25481222756207" lon="8.330140057951212">
        <ele>584.5</ele>
        <time>2021-10-24T09:08:13Z</time>
      </trkpt>
      <trkpt lat="46.254806024953723" lon="8.330163778737187">
        <ele>584.44000000000005</ele>
        <time>2021-10-24T09:08:14Z</time>
      </trkpt>
      <trkpt lat="46.25479462556541" lon="8.33025966770947">
        <ele>584.13</ele>
        <time>2021-10-24T09:08:19Z</time>
      </trkpt>
      <trkpt lat="46.25479026697576" lon="8.33036033436656">
        <ele>583.13999999999999</ele>
        <time>2021-10-24T09:08:25Z</time>
      </trkpt>
      <trkpt lat="46.254788674414158" lon="8.330441974103451">
        <ele>582.07000000000005</ele>
        <time>2021-10-24T09:08:32Z</time>
      </trkpt>
      <trkpt lat="46.254780292510986" lon="8.330520763993263">
        <ele>581.34000000000003</ele>
        <time>2021-10-24T09:08:38Z</time>
      </trkpt>
      <trkpt lat="46.254765456542373" lon="8.330562757328153">
        <ele>581.03999999999996</ele>
        <time>2021-10-24T09:08:41Z</time>
      </trkpt>
      <trkpt lat="46.254741987213492" lon="8.330681528896093">
        <ele>580.09000000000003</ele>
        <time>2021-10-24T09:08:48Z</time>
      </trkpt>
      <trkpt lat="46.25472279265523" lon="8.330755792558193">
        <ele>579.45000000000005</ele>
        <time>2021-10-24T09:08:52Z</time>
      </trkpt>
      <trkpt lat="46.254715165123343" lon="8.330773143097758">
        <ele>579.30999999999995</ele>
        <time>2021-10-24T09:08:53Z</time>
      </trkpt>
      <trkpt lat="46.254695048555732" lon="8.330802395939827">
        <ele>579.05999999999995</ele>
        <time>2021-10-24T09:08:55Z</time>
      </trkpt>
      <trkpt lat="46.254628831520677" lon="8.33078789524734">
        <ele>578.36000000000001</ele>
        <time>2021-10-24T09:09:01Z</time>
      </trkpt>
      <trkpt lat="46.25455959700048" lon="8.33075076341629">
        <ele>577.26999999999998</ele>
        <time>2021-10-24T09:09:10Z</time>
      </trkpt>
      <trkpt lat="46.254524057731032" lon="8.330706171691418">
        <ele>576.16999999999996</ele>
        <time>2021-10-24T09:09:17Z</time>
      </trkpt>
      <trkpt lat="46.254503941163421" lon="8.33064422942698">
        <ele>574.15999999999997</ele>
        <time>2021-10-24T09:09:25Z</time>
      </trkpt>
      <trkpt lat="46.254488853737712" lon="8.330532247200608">
        <ele>574.07000000000005</ele>
        <time>2021-10-24T09:09:34Z</time>
      </trkpt>
      <trkpt lat="46.254488518461585" lon="8.330427976325154">
        <ele>572.25999999999999</ele>
        <time>2021-10-24T09:09:43Z</time>
      </trkpt>
      <trkpt lat="46.254476197063923" lon="8.330333763733506">
        <ele>571.41999999999996</ele>
        <time>2021-10-24T09:09:50Z</time>
      </trkpt>
      <trkpt lat="46.254471419379115" lon="8.330319346860051">
        <ele>571.16999999999996</ele>
        <time>2021-10-24T09:09:51Z</time>
      </trkpt>
      <trkpt lat="46.254469072446227" lon="8.330228487029672">
        <ele>570.60000000000002</ele>
        <time>2021-10-24T09:09:58Z</time>
      </trkpt>
      <trkpt lat="46.254455577582121" lon="8.330108625814319">
        <ele>570.17999999999995</ele>
        <time>2021-10-24T09:10:07Z</time>
      </trkpt>
      <trkpt lat="46.254452895373106" lon="8.330041822046042">
        <ele>569.79999999999995</ele>
        <time>2021-10-24T09:10:12Z</time>
      </trkpt>
      <trkpt lat="46.254453817382455" lon="8.329984825104475">
        <ele>569.51999999999998</ele>
        <time>2021-10-24T09:10:19Z</time>
      </trkpt>
      <trkpt lat="46.254452224820852" lon="8.329945094883442">
        <ele>569.50999999999999</ele>
        <time>2021-10-24T09:10:21Z</time>
      </trkpt>
      <trkpt lat="46.254451386630535" lon="8.329923050478101">
        <ele>569.50999999999999</ele>
        <time>2021-10-24T09:10:22Z</time>
      </trkpt>
      <trkpt lat="46.254449374973774" lon="8.329903688281775">
        <ele>569.5</ele>
        <time>2021-10-24T09:10:23Z</time>
      </trkpt>
      <trkpt lat="46.254445938393474" lon="8.329886756837368">
        <ele>569.47000000000003</ele>
        <time>2021-10-24T09:10:24Z</time>
      </trkpt>
      <trkpt lat="46.254399083554745" lon="8.329804698005319">
        <ele>568.72000000000003</ele>
        <time>2021-10-24T09:10:32Z</time>
      </trkpt>
      <trkpt lat="46.254345858469605" lon="8.329800423234701">
        <ele>567.66999999999996</ele>
        <time>2021-10-24T09:10:40Z</time>
      </trkpt>
      <trkpt lat="46.254327753558755" lon="8.329805536195636">
        <ele>567.38999999999999</ele>
        <time>2021-10-24T09:10:42Z</time>
      </trkpt>
      <trkpt lat="46.254308559000492" lon="8.32981207408011">
        <ele>567.17999999999995</ele>
        <time>2021-10-24T09:10:44Z</time>
      </trkpt>
      <trkpt lat="46.254243180155754" lon="8.329843170940876">
        <ele>565.79999999999995</ele>
        <time>2021-10-24T09:10:52Z</time>
      </trkpt>
      <trkpt lat="46.254205042496324" lon="8.329869071021676">
        <ele>564.88</ele>
        <time>2021-10-24T09:10:58Z</time>
      </trkpt>
      <trkpt lat="46.254194816574454" lon="8.329884493723512">
        <ele>564.26999999999998</ele>
        <time>2021-10-24T09:11:03Z</time>
      </trkpt>
      <trkpt lat="46.254185680299997" lon="8.329894887283444">
        <ele>564.17999999999995</ele>
        <time>2021-10-24T09:11:04Z</time>
      </trkpt>
      <trkpt lat="46.254176376387477" lon="8.329904358834028">
        <ele>564.09000000000003</ele>
        <time>2021-10-24T09:11:05Z</time>
      </trkpt>
      <trkpt lat="46.254102531820536" lon="8.329978119581938">
        <ele>563.52999999999997</ele>
        <time>2021-10-24T09:11:14Z</time>
      </trkpt>
      <trkpt lat="46.254037069156766" lon="8.330045258626342">
        <ele>563.26999999999998</ele>
        <time>2021-10-24T09:11:22Z</time>
      </trkpt>
      <trkpt lat="46.253986693918705" lon="8.330149948596954">
        <ele>563.27999999999997</ele>
        <time>2021-10-24T09:11:30Z</time>
      </trkpt>
      <trkpt lat="46.253983927890658" lon="8.330209460109472">
        <ele>563.10000000000002</ele>
        <time>2021-10-24T09:11:36Z</time>
      </trkpt>
      <trkpt lat="46.254001026973128" lon="8.330277353525162">
        <ele>563.04999999999995</ele>
        <time>2021-10-24T09:11:41Z</time>
      </trkpt>
      <trkpt lat="46.254036650061607" lon="8.330393945798278">
        <ele>562.90999999999997</ele>
        <time>2021-10-24T09:11:49Z</time>
      </trkpt>
      <trkpt lat="46.254041427746415" lon="8.330409368500114">
        <ele>562.88</ele>
        <time>2021-10-24T09:11:50Z</time>
      </trkpt>
      <trkpt lat="46.254065735265613" lon="8.330522859469056">
        <ele>562.64999999999998</ele>
        <time>2021-10-24T09:11:57Z</time>
      </trkpt>
      <trkpt lat="46.254062550142407" lon="8.330630231648684">
        <ele>562.21000000000004</ele>
        <time>2021-10-24T09:12:05Z</time>
      </trkpt>
      <trkpt lat="46.254059448838234" lon="8.330662082880735">
        <ele>562.04999999999995</ele>
        <time>2021-10-24T09:12:07Z</time>
      </trkpt>
      <trkpt lat="46.254063891246915" lon="8.330756882205606">
        <ele>561.32000000000005</ele>
        <time>2021-10-24T09:12:13Z</time>
      </trkpt>
      <trkpt lat="46.254063975065947" lon="8.330772472545505">
        <ele>561.22000000000003</ele>
        <time>2021-10-24T09:12:14Z</time>
      </trkpt>
      <trkpt lat="46.254065651446581" lon="8.330810191109777">
        <ele>561.07000000000005</ele>
        <time>2021-10-24T09:12:16Z</time>
      </trkpt>
      <trkpt lat="46.254066489636898" lon="8.33083039149642">
        <ele>560.98000000000002</ele>
        <time>2021-10-24T09:12:17Z</time>
      </trkpt>
      <trkpt lat="46.254064394161105" lon="8.330943966284394">
        <ele>560.53999999999996</ele>
        <time>2021-10-24T09:12:23Z</time>
      </trkpt>
      <trkpt lat="46.254073195159435" lon="8.331055445596576">
        <ele>560.21000000000004</ele>
        <time>2021-10-24T09:12:31Z</time>
      </trkpt>
      <trkpt lat="46.254103872925043" lon="8.331140018999577">
        <ele>559.77999999999997</ele>
        <time>2021-10-24T09:12:37Z</time>
      </trkpt>
      <trkpt lat="46.254154918715358" lon="8.331200871616602">
        <ele>559.22000000000003</ele>
        <time>2021-10-24T09:12:44Z</time>
      </trkpt>
      <trkpt lat="46.254199845716357" lon="8.331226855516434">
        <ele>558.82000000000005</ele>
        <time>2021-10-24T09:12:49Z</time>
      </trkpt>
      <trkpt lat="46.254251142963767" lon="8.331263568252325">
        <ele>558.40999999999997</ele>
        <time>2021-10-24T09:12:54Z</time>
      </trkpt>
      <trkpt lat="46.254306631162763" lon="8.331327522173524">
        <ele>557.88</ele>
        <time>2021-10-24T09:13:00Z</time>
      </trkpt>
      <trkpt lat="46.254291543737054" lon="8.331415196880698">
        <ele>557.30999999999995</ele>
        <time>2021-10-24T09:13:06Z</time>
      </trkpt>
      <trkpt lat="46.254232618957758" lon="8.331451239064336">
        <ele>556.39999999999998</ele>
        <time>2021-10-24T09:13:13Z</time>
      </trkpt>
      <trkpt lat="46.254221135750413" lon="8.331454675644636">
        <ele>556.25999999999999</ele>
        <time>2021-10-24T09:13:14Z</time>
      </trkpt>
      <trkpt lat="46.254175873473287" lon="8.331465236842632">
        <ele>555.03999999999996</ele>
        <time>2021-10-24T09:13:21Z</time>
      </trkpt>
      <trkpt lat="46.254163216799498" lon="8.331459872424603">
        <ele>554.84000000000003</ele>
        <time>2021-10-24T09:13:23Z</time>
      </trkpt>
      <trkpt lat="46.254155840724707" lon="8.33145534619689">
        <ele>554.75</ele>
        <time>2021-10-24T09:13:24Z</time>
      </trkpt>
      <trkpt lat="46.254143351688981" lon="8.331452663987875">
        <ele>554.66999999999996</ele>
        <time>2021-10-24T09:13:25Z</time>
      </trkpt>
      <trkpt lat="46.254129437729716" lon="8.331451239064336">
        <ele>554.55999999999995</ele>
        <time>2021-10-24T09:13:26Z</time>
      </trkpt>
      <trkpt lat="46.254114182665944" lon="8.331450736150146">
        <ele>554.42999999999995</ele>
        <time>2021-10-24T09:13:27Z</time>
      </trkpt>
      <trkpt lat="46.254099765792489" lon="8.331448892131448">
        <ele>554.32000000000005</ele>
        <time>2021-10-24T09:13:28Z</time>
      </trkpt>
      <trkpt lat="46.254086690023541" lon="8.331443360075355">
        <ele>554.20000000000005</ele>
        <time>2021-10-24T09:13:29Z</time>
      </trkpt>
      <trkpt lat="46.254075625911355" lon="8.331436822190881">
        <ele>553.98000000000002</ele>
        <time>2021-10-24T09:13:30Z</time>
      </trkpt>
      <trkpt lat="46.253996668383479" lon="8.331368174403906">
        <ele>552.60000000000002</ele>
        <time>2021-10-24T09:13:38Z</time>
      </trkpt>
      <trkpt lat="46.253952328115702" lon="8.331374125555158">
        <ele>551.55999999999995</ele>
        <time>2021-10-24T09:13:44Z</time>
      </trkpt>
      <trkpt lat="46.253951489925385" lon="8.331429027020931">
        <ele>550.75</ele>
        <time>2021-10-24T09:13:50Z</time>
      </trkpt>
      <trkpt lat="46.253961296752095" lon="8.331460962072015">
        <ele>550.55999999999995</ele>
        <time>2021-10-24T09:13:52Z</time>
      </trkpt>
      <trkpt lat="46.253969678655267" lon="8.331474959850311">
        <ele>550.38999999999999</ele>
        <time>2021-10-24T09:13:53Z</time>
      </trkpt>
      <trkpt lat="46.254023490473628" lon="8.331546122208238">
        <ele>549.88</ele>
        <time>2021-10-24T09:14:02Z</time>
      </trkpt>
      <trkpt lat="46.254022987559438" lon="8.33160538226366">
        <ele>549.91999999999996</ele>
        <time>2021-10-24T09:14:11Z</time>
      </trkpt>
      <trkpt lat="46.254032123833895" lon="8.331649387255311">
        <ele>549.86000000000001</ele>
        <time>2021-10-24T09:14:22Z</time>
      </trkpt>
      <trkpt lat="46.254046373069286" lon="8.331691548228264">
        <ele>549.91999999999996</ele>
        <time>2021-10-24T09:14:26Z</time>
      </trkpt>
      <trkpt lat="46.254050731658936" lon="8.331729853525758">
        <ele>549.92999999999995</ele>
        <time>2021-10-24T09:14:34Z</time>
      </trkpt>
      <trkpt lat="46.254082079976797" lon="8.331768494099379">
        <ele>549.88999999999999</ele>
        <time>2021-10-24T09:14:42Z</time>
      </trkpt>
      <trkpt lat="46.25407537445426" lon="8.331770086660981">
        <ele>549.74000000000001</ele>
        <time>2021-10-24T09:14:53Z</time>
      </trkpt>
      <trkpt lat="46.254083588719368" lon="8.33175583742559">
        <ele>549.57000000000005</ele>
        <time>2021-10-24T09:15:06Z</time>
      </trkpt>
      <trkpt lat="46.254069423303008" lon="8.33180177025497">
        <ele>549.75</ele>
        <time>2021-10-24T09:15:26Z</time>
      </trkpt>
      <trkpt lat="46.254083253443241" lon="8.331874357536435">
        <ele>549.60000000000002</ele>
        <time>2021-10-24T09:15:34Z</time>
      </trkpt>
      <trkpt lat="46.254109321162105" lon="8.331919033080339">
        <ele>549.36000000000001</ele>
        <time>2021-10-24T09:15:41Z</time>
      </trkpt>
      <trkpt lat="46.254108650609851" lon="8.331906795501709">
        <ele>549.26999999999998</ele>
        <time>2021-10-24T09:15:48Z</time>
      </trkpt>
      <trkpt lat="46.254117283970118" lon="8.331922050565481">
        <ele>549.52999999999997</ele>
        <time>2021-10-24T09:15:55Z</time>
      </trkpt>
      <trkpt lat="46.254155673086643" lon="8.331984160467982">
        <ele>549.55999999999995</ele>
        <time>2021-10-24T09:16:00Z</time>
      </trkpt>
      <trkpt lat="46.254176376387477" lon="8.33203193731606">
        <ele>549.63999999999999</ele>
        <time>2021-10-24T09:16:03Z</time>
      </trkpt>
      <trkpt lat="46.254192721098661" lon="8.332125479355454">
        <ele>549.87</ele>
        <time>2021-10-24T09:16:09Z</time>
      </trkpt>
      <trkpt lat="46.25417796894908" lon="8.332105949521065">
        <ele>550.75</ele>
        <time>2021-10-24T09:16:17Z</time>
      </trkpt>
      <trkpt lat="46.254183584824204" lon="8.332113241776824">
        <ele>550.82000000000005</ele>
        <time>2021-10-24T09:16:26Z</time>
      </trkpt>
      <trkpt lat="46.254225578159094" lon="8.332149032503367">
        <ele>550.87</ele>
        <time>2021-10-24T09:16:32Z</time>
      </trkpt>
      <trkpt lat="46.254251142963767" lon="8.332137297838926">
        <ele>551.48000000000002</ele>
        <time>2021-10-24T09:16:36Z</time>
      </trkpt>
      <trkpt lat="46.254263631999493" lon="8.332088934257627">
        <ele>552.20000000000005</ele>
        <time>2021-10-24T09:16:39Z</time>
      </trkpt>
      <trkpt lat="46.254269583150744" lon="8.332076445221901">
        <ele>552.37</ele>
        <time>2021-10-24T09:16:40Z</time>
      </trkpt>
      <trkpt lat="46.254275785759091" lon="8.332063034176827">
        <ele>552.49000000000001</ele>
        <time>2021-10-24T09:16:41Z</time>
      </trkpt>
      <trkpt lat="46.254283497110009" lon="8.332050042226911">
        <ele>552.58000000000004</ele>
        <time>2021-10-24T09:16:42Z</time>
      </trkpt>
      <trkpt lat="46.254292298108339" lon="8.332037050276995">
        <ele>552.63999999999999</ele>
        <time>2021-10-24T09:16:43Z</time>
      </trkpt>
      <trkpt lat="46.254317024722695" lon="8.332017436623573">
        <ele>552.52999999999997</ele>
        <time>2021-10-24T09:16:51Z</time>
      </trkpt>
      <trkpt lat="46.2543133366853" lon="8.332008551806212">
        <ele>552.49000000000001</ele>
        <time>2021-10-24T09:16:58Z</time>
      </trkpt>
      <trkpt lat="46.254317862913013" lon="8.331999834626913">
        <ele>552.72000000000003</ele>
        <time>2021-10-24T09:17:15Z</time>
      </trkpt>
      <trkpt lat="46.254315180703998" lon="8.331994051113725">
        <ele>552.57000000000005</ele>
        <time>2021-10-24T09:17:30Z</time>
      </trkpt>
      <trkpt lat="46.254304870963097" lon="8.331996817141771">
        <ele>552.38</ele>
        <time>2021-10-24T09:17:36Z</time>
      </trkpt>
      <trkpt lat="46.254279054701328" lon="8.331978293135762">
        <ele>552.33000000000004</ele>
        <time>2021-10-24T09:17:42Z</time>
      </trkpt>
      <trkpt lat="46.254275618121028" lon="8.332001678645611">
        <ele>552.29999999999995</ele>
        <time>2021-10-24T09:18:05Z</time>
      </trkpt>
      <trkpt lat="46.254281988367438" lon="8.332024225965142">
        <ele>552.29999999999995</ele>
        <time>2021-10-24T09:18:07Z</time>
      </trkpt>
      <trkpt lat="46.25429866835475" lon="8.332064542919397">
        <ele>552.29999999999995</ele>
        <time>2021-10-24T09:18:12Z</time>
      </trkpt>
      <trkpt lat="46.25429967418313" lon="8.332076445221901">
        <ele>552.29999999999995</ele>
        <time>2021-10-24T09:18:22Z</time>
      </trkpt>
      <trkpt lat="46.254289280623198" lon="8.332085581496358">
        <ele>552.29999999999995</ele>
        <time>2021-10-24T09:18:24Z</time>
      </trkpt>
      <trkpt lat="46.254282742738724" lon="8.332093292847276">
        <ele>552.29999999999995</ele>
        <time>2021-10-24T09:18:25Z</time>
      </trkpt>
      <trkpt lat="46.254242090508342" lon="8.33216386847198">
        <ele>552.75999999999999</ele>
        <time>2021-10-24T09:18:31Z</time>
      </trkpt>
      <trkpt lat="46.254229936748743" lon="8.332161940634251">
        <ele>552.79999999999995</ele>
        <time>2021-10-24T09:18:33Z</time>
      </trkpt>
      <trkpt lat="46.254223398864269" lon="8.332153223454952">
        <ele>552.77999999999997</ele>
        <time>2021-10-24T09:18:34Z</time>
      </trkpt>
      <trkpt lat="46.254206718876958" lon="8.332122964784503">
        <ele>552.60000000000002</ele>
        <time>2021-10-24T09:18:36Z</time>
      </trkpt>
      <trkpt lat="46.254199929535389" lon="8.332100585103035">
        <ele>552.44000000000005</ele>
        <time>2021-10-24T09:18:37Z</time>
      </trkpt>
      <trkpt lat="46.254195235669613" lon="8.332073092460632">
        <ele>552.21000000000004</ele>
        <time>2021-10-24T09:18:38Z</time>
      </trkpt>
      <trkpt lat="46.254190625622869" lon="8.332042163237929">
        <ele>552</ele>
        <time>2021-10-24T09:18:39Z</time>
      </trkpt>
      <trkpt lat="46.254182830452919" lon="8.332016263157129">
        <ele>551.77999999999997</ele>
        <time>2021-10-24T09:18:40Z</time>
      </trkpt>
      <trkpt lat="46.254167994484305" lon="8.332000337541103">
        <ele>551.23000000000002</ele>
        <time>2021-10-24T09:18:41Z</time>
      </trkpt>
      <trkpt lat="46.254152152687311" lon="8.331988770514727">
        <ele>551.04999999999995</ele>
        <time>2021-10-24T09:18:42Z</time>
      </trkpt>
      <trkpt lat="46.254138993099332" lon="8.33197183907032">
        <ele>550.88999999999999</ele>
        <time>2021-10-24T09:18:43Z</time>
      </trkpt>
      <trkpt lat="46.254127761349082" lon="8.331943927332759">
        <ele>550.69000000000005</ele>
        <time>2021-10-24T09:18:44Z</time>
      </trkpt>
      <trkpt lat="46.254103872925043" lon="8.331877961754799">
        <ele>550.01999999999998</ele>
        <time>2021-10-24T09:18:51Z</time>
      </trkpt>
      <trkpt lat="46.254096832126379" lon="8.331841584295034">
        <ele>549.80999999999995</ele>
        <time>2021-10-24T09:18:59Z</time>
      </trkpt>
      <trkpt lat="46.254095239564776" lon="8.331831023097038">
        <ele>549.46000000000004</ele>
        <time>2021-10-24T09:19:04Z</time>
      </trkpt>
      <trkpt lat="46.25408953987062" lon="8.331822976469994">
        <ele>549.47000000000003</ele>
        <time>2021-10-24T09:19:05Z</time>
      </trkpt>
      <trkpt lat="46.254082750529051" lon="8.3318105712533">
        <ele>549.51999999999998</ele>
        <time>2021-10-24T09:19:06Z</time>
      </trkpt>
      <trkpt lat="46.254076631739736" lon="8.331793891265988">
        <ele>549.57000000000005</ele>
        <time>2021-10-24T09:19:07Z</time>
      </trkpt>
      <trkpt lat="46.254037320613861" lon="8.331648549064994">
        <ele>549.73000000000002</ele>
        <time>2021-10-24T09:19:17Z</time>
      </trkpt>
      <trkpt lat="46.254038494080305" lon="8.331615440547466">
        <ele>549.60000000000002</ele>
        <time>2021-10-24T09:19:26Z</time>
      </trkpt>
      <trkpt lat="46.25404947437346" lon="8.331603286787868">
        <ele>549.63999999999999</ele>
        <time>2021-10-24T09:19:32Z</time>
      </trkpt>
      <trkpt lat="46.25404897145927" lon="8.331597754731774">
        <ele>549.33000000000004</ele>
        <time>2021-10-24T09:19:43Z</time>
      </trkpt>
      <trkpt lat="46.254045618698001" lon="8.33159314468503">
        <ele>549.30999999999995</ele>
        <time>2021-10-24T09:19:44Z</time>
      </trkpt>
      <trkpt lat="46.254040421918035" lon="8.331580823287368">
        <ele>549.30999999999995</ele>
        <time>2021-10-24T09:19:45Z</time>
      </trkpt>
      <trkpt lat="46.254033967852592" lon="8.331563891842961">
        <ele>549.35000000000002</ele>
        <time>2021-10-24T09:19:46Z</time>
      </trkpt>
      <trkpt lat="46.254025585949421" lon="8.331545535475016">
        <ele>549.42999999999995</ele>
        <time>2021-10-24T09:19:47Z</time>
      </trkpt>
      <trkpt lat="46.25401527620852" lon="8.331528520211577">
        <ele>549.53999999999996</ele>
        <time>2021-10-24T09:19:48Z</time>
      </trkpt>
      <trkpt lat="46.25400354154408" lon="8.331510918214917">
        <ele>549.54999999999995</ele>
        <time>2021-10-24T09:19:49Z</time>
      </trkpt>
      <trkpt lat="46.253992896527052" lon="8.331491220742464">
        <ele>549.60000000000002</ele>
        <time>2021-10-24T09:19:50Z</time>
      </trkpt>
      <trkpt lat="46.253983760252595" lon="8.331471523270011">
        <ele>549.62</ele>
        <time>2021-10-24T09:19:51Z</time>
      </trkpt>
      <trkpt lat="46.253979066386819" lon="8.331453166902065">
        <ele>549.63</ele>
        <time>2021-10-24T09:19:52Z</time>
      </trkpt>
      <trkpt lat="46.253975797444582" lon="8.331434559077025">
        <ele>549.64999999999998</ele>
        <time>2021-10-24T09:19:53Z</time>
      </trkpt>
      <trkpt lat="46.253979234024882" lon="8.331380244344473">
        <ele>550.17999999999995</ele>
        <time>2021-10-24T09:19:58Z</time>
      </trkpt>
      <trkpt lat="46.253995578736067" lon="8.331372952088714">
        <ele>546.78999999999996</ele>
        <time>2021-10-24T09:20:00Z</time>
      </trkpt>
      <trkpt lat="46.25401334837079" lon="8.331386195495725">
        <ele>545.61000000000001</ele>
        <time>2021-10-24T09:20:02Z</time>
      </trkpt>
      <trkpt lat="46.254050061106682" lon="8.331445455551148">
        <ele>548.76999999999998</ele>
        <time>2021-10-24T09:20:07Z</time>
      </trkpt>
      <trkpt lat="46.254090629518032" lon="8.331482168287039">
        <ele>553.44000000000005</ele>
        <time>2021-10-24T09:20:13Z</time>
      </trkpt>
      <trkpt lat="46.254103789106011" lon="8.33148468285799">
        <ele>554.09000000000003</ele>
        <time>2021-10-24T09:20:15Z</time>
      </trkpt>
      <trkpt lat="46.254147961735725" lon="8.331483257934451">
        <ele>553.65999999999997</ele>
        <time>2021-10-24T09:20:23Z</time>
      </trkpt>
      <trkpt lat="46.254160199314356" lon="8.331481665372849">
        <ele>553.63</ele>
        <time>2021-10-24T09:20:24Z</time>
      </trkpt>
      <trkpt lat="46.254173358902335" lon="8.331480827182531">
        <ele>553.62</ele>
        <time>2021-10-24T09:20:25Z</time>
      </trkpt>
      <trkpt lat="46.254187691956758" lon="8.331482252106071">
        <ele>553.64999999999998</ele>
        <time>2021-10-24T09:20:26Z</time>
      </trkpt>
      <trkpt lat="46.254267990589142" lon="8.331481162458658">
        <ele>554.13999999999999</ele>
        <time>2021-10-24T09:20:31Z</time>
      </trkpt>
      <trkpt lat="46.254283580929041" lon="8.33147537894547">
        <ele>554.36000000000001</ele>
        <time>2021-10-24T09:20:32Z</time>
      </trkpt>
      <trkpt lat="46.254297159612179" lon="8.331463560461998">
        <ele>554.52999999999997</ele>
        <time>2021-10-24T09:20:33Z</time>
      </trkpt>
      <trkpt lat="46.254310319200158" lon="8.331450233235955">
        <ele>554.67999999999995</ele>
        <time>2021-10-24T09:20:34Z</time>
      </trkpt>
      <trkpt lat="46.254334626719356" lon="8.331394493579865">
        <ele>556.00999999999999</ele>
        <time>2021-10-24T09:20:40Z</time>
      </trkpt>
      <trkpt lat="46.254302691668272" lon="8.331291060894728">
        <ele>557.14999999999998</ele>
        <time>2021-10-24T09:20:48Z</time>
      </trkpt>
      <trkpt lat="46.254249047487974" lon="8.331241356208921">
        <ele>557.63</ele>
        <time>2021-10-24T09:20:55Z</time>
      </trkpt>
      <trkpt lat="46.254196995869279" lon="8.331191735342145">
        <ele>557.97000000000003</ele>
        <time>2021-10-24T09:21:02Z</time>
      </trkpt>
      <trkpt lat="46.254139747470617" lon="8.331127362325788">
        <ele>558.54999999999995</ele>
        <time>2021-10-24T09:21:09Z</time>
      </trkpt>
      <trkpt lat="46.254134131595492" lon="8.331114538013935">
        <ele>558.64999999999998</ele>
        <time>2021-10-24T09:21:10Z</time>
      </trkpt>
      <trkpt lat="46.254096664488316" lon="8.331039855256677">
        <ele>559.11000000000001</ele>
        <time>2021-10-24T09:21:17Z</time>
      </trkpt>
      <trkpt lat="46.254089791327715" lon="8.331016888841987">
        <ele>559.40999999999997</ele>
        <time>2021-10-24T09:21:19Z</time>
      </trkpt>
      <trkpt lat="46.254066992551088" lon="8.330922089517117">
        <ele>559.88999999999999</ele>
        <time>2021-10-24T09:21:27Z</time>
      </trkpt>
      <trkpt lat="46.254064226523042" lon="8.330810191109777">
        <ele>560.30999999999995</ele>
        <time>2021-10-24T09:21:36Z</time>
      </trkpt>
      <trkpt lat="46.254063472151756" lon="8.330783620476723">
        <ele>560.38999999999999</ele>
        <time>2021-10-24T09:21:38Z</time>
      </trkpt>
      <trkpt lat="46.254063053056598" lon="8.330679684877396">
        <ele>560.66999999999996</ele>
        <time>2021-10-24T09:21:47Z</time>
      </trkpt>
      <trkpt lat="46.254070345312357" lon="8.330594189465046">
        <ele>561.24000000000001</ele>
        <time>2021-10-24T09:21:55Z</time>
      </trkpt>
      <trkpt lat="46.254058526828885" lon="8.330516573041678">
        <ele>561.80999999999995</ele>
        <time>2021-10-24T09:22:03Z</time>
      </trkpt>
      <trkpt lat="46.254057353362441" lon="8.330464772880077">
        <ele>561.95000000000005</ele>
        <time>2021-10-24T09:22:07Z</time>
      </trkpt>
      <trkpt lat="46.254025083035231" lon="8.330363184213638">
        <ele>562.49000000000001</ele>
        <time>2021-10-24T09:22:15Z</time>
      </trkpt>
      <trkpt lat="46.254009492695332" lon="8.330327561125159">
        <ele>562.62</ele>
        <time>2021-10-24T09:22:18Z</time>
      </trkpt>
      <trkpt lat="46.253982335329056" lon="8.330248687416315">
        <ele>562.90999999999997</ele>
        <time>2021-10-24T09:22:25Z</time>
      </trkpt>
      <trkpt lat="46.253981161862612" lon="8.330130418762565">
        <ele>563.34000000000003</ele>
        <time>2021-10-24T09:22:34Z</time>
      </trkpt>
      <trkpt lat="46.253983676433563" lon="8.330118767917156">
        <ele>563.38999999999999</ele>
        <time>2021-10-24T09:22:35Z</time>
      </trkpt>
      <trkpt lat="46.254044948145747" lon="8.33003687672317">
        <ele>563.73000000000002</ele>
        <time>2021-10-24T09:22:44Z</time>
      </trkpt>
      <trkpt lat="46.254166234284639" lon="8.329934952780604">
        <ele>563.78999999999996</ele>
        <time>2021-10-24T09:22:58Z</time>
      </trkpt>
      <trkpt lat="46.254224991425872" lon="8.329876698553562">
        <ele>564.19000000000005</ele>
        <time>2021-10-24T09:23:06Z</time>
      </trkpt>
      <trkpt lat="46.254289532080293" lon="8.329842668026686">
        <ele>564.87</ele>
        <time>2021-10-24T09:23:14Z</time>
      </trkpt>
      <trkpt lat="46.254355581477284" lon="8.329822551459074">
        <ele>565.98000000000002</ele>
        <time>2021-10-24T09:23:23Z</time>
      </trkpt>
      <trkpt lat="46.254407549276948" lon="8.329842416569591">
        <ele>566.70000000000005</ele>
        <time>2021-10-24T09:23:29Z</time>
      </trkpt>
      <trkpt lat="46.254431940615177" lon="8.329862449318171">
        <ele>567.12</ele>
        <time>2021-10-24T09:23:32Z</time>
      </trkpt>
      <trkpt lat="46.254467898979783" lon="8.32994794473052">
        <ele>568.24000000000001</ele>
        <time>2021-10-24T09:23:40Z</time>
      </trkpt>
      <trkpt lat="46.25448483042419" lon="8.330040564760566">
        <ele>569.05999999999995</ele>
        <time>2021-10-24T09:23:47Z</time>
      </trkpt>
      <trkpt lat="46.25449413433671" lon="8.330107368528843">
        <ele>569.44000000000005</ele>
        <time>2021-10-24T09:23:53Z</time>
      </trkpt>
      <trkpt lat="46.254496984183788" lon="8.330156235024333">
        <ele>569.38999999999999</ele>
        <time>2021-10-24T09:23:56Z</time>
      </trkpt>
      <trkpt lat="46.254497738555074" lon="8.330226559191942">
        <ele>569.78999999999996</ele>
        <time>2021-10-24T09:24:02Z</time>
      </trkpt>
      <trkpt lat="46.254498744383454" lon="8.330278694629669">
        <ele>569.88999999999999</ele>
        <time>2021-10-24T09:24:06Z</time>
      </trkpt>
      <trkpt lat="46.254509724676609" lon="8.330358657985926">
        <ele>570.14999999999998</ele>
        <time>2021-10-24T09:24:12Z</time>
      </trkpt>
      <trkpt lat="46.254520872607827" lon="8.330439291894436">
        <ele>570.73000000000002</ele>
        <time>2021-10-24T09:24:20Z</time>
      </trkpt>
      <trkpt lat="46.254518358036876" lon="8.330509783700109">
        <ele>571.21000000000004</ele>
        <time>2021-10-24T09:24:26Z</time>
      </trkpt>
      <trkpt lat="46.254514250904322" lon="8.330570720136166">
        <ele>571.80999999999995</ele>
        <time>2021-10-24T09:24:33Z</time>
      </trkpt>
      <trkpt lat="46.254523051902652" lon="8.330625873059034">
        <ele>572.55999999999995</ele>
        <time>2021-10-24T09:24:40Z</time>
      </trkpt>
      <trkpt lat="46.254541995003819" lon="8.330698795616627">
        <ele>573.89999999999998</ele>
        <time>2021-10-24T09:24:50Z</time>
      </trkpt>
      <trkpt lat="46.254582982510328" lon="8.330737771466374">
        <ele>574.39999999999998</ele>
        <time>2021-10-24T09:24:57Z</time>
      </trkpt>
      <trkpt lat="46.254604524001479" lon="8.330762833356857">
        <ele>574.76999999999998</ele>
        <time>2021-10-24T09:25:00Z</time>
      </trkpt>
      <trkpt lat="46.25462849624455" lon="8.33079569041729">
        <ele>575.64999999999998</ele>
        <time>2021-10-24T09:25:07Z</time>
      </trkpt>
      <trkpt lat="46.254653055220842" lon="8.33082159049809">
        <ele>576.46000000000004</ele>
        <time>2021-10-24T09:25:13Z</time>
      </trkpt>
      <trkpt lat="46.254690354689956" lon="8.330819578841329">
        <ele>577.12</ele>
        <time>2021-10-24T09:25:20Z</time>
      </trkpt>
      <trkpt lat="46.254724552854896" lon="8.330771131440997">
        <ele>577.74000000000001</ele>
        <time>2021-10-24T09:25:26Z</time>
      </trkpt>
      <trkpt lat="46.254738047719002" lon="8.330770125612617">
        <ele>577.91999999999996</ele>
        <time>2021-10-24T09:25:28Z</time>
      </trkpt>
      <trkpt lat="46.254753051325679" lon="8.330705082044005">
        <ele>578.37</ele>
        <time>2021-10-24T09:25:34Z</time>
      </trkpt>
      <trkpt lat="46.254759840667248" lon="8.33062126301229">
        <ele>579.00999999999999</ele>
        <time>2021-10-24T09:25:42Z</time>
      </trkpt>
      <trkpt lat="46.254760175943375" lon="8.330542892217636">
        <ele>580</ele>
        <time>2021-10-24T09:25:50Z</time>
      </trkpt>
      <trkpt lat="46.2547692283988" lon="8.330468041822314">
        <ele>580.58000000000004</ele>
        <time>2021-10-24T09:25:58Z</time>
      </trkpt>
      <trkpt lat="46.254796972498298" lon="8.330415822565556">
        <ele>581.17999999999995</ele>
        <time>2021-10-24T09:26:05Z</time>
      </trkpt>
      <trkpt lat="46.254796888679266" lon="8.33032957278192">
        <ele>581.78999999999996</ele>
        <time>2021-10-24T09:26:13Z</time>
      </trkpt>
      <trkpt lat="46.254801582545042" lon="8.330237371847034">
        <ele>582.55999999999995</ele>
        <time>2021-10-24T09:26:20Z</time>
      </trkpt>
      <trkpt lat="46.254830919206142" lon="8.330128574743867">
        <ele>583.73000000000002</ele>
        <time>2021-10-24T09:26:29Z</time>
      </trkpt>
      <trkpt lat="46.254892442375422" lon="8.330018436536193">
        <ele>584.70000000000005</ele>
        <time>2021-10-24T09:26:40Z</time>
      </trkpt>
      <trkpt lat="46.254914738237858" lon="8.329980382695794">
        <ele>584.79999999999995</ele>
        <time>2021-10-24T09:26:44Z</time>
      </trkpt>
      <trkpt lat="46.254974165931344" lon="8.329906035214663">
        <ele>584.98000000000002</ele>
        <time>2021-10-24T09:26:52Z</time>
      </trkpt>
      <trkpt lat="46.2550506927073" lon="8.329838141798973">
        <ele>585.23000000000002</ele>
        <time>2021-10-24T09:27:02Z</time>
      </trkpt>
      <trkpt lat="46.255099475383759" lon="8.329777792096138">
        <ele>585.37</ele>
        <time>2021-10-24T09:27:09Z</time>
      </trkpt>
      <trkpt lat="46.255104839801788" lon="8.329767482355237">
        <ele>585.38999999999999</ele>
        <time>2021-10-24T09:27:10Z</time>
      </trkpt>
      <trkpt lat="46.255122357979417" lon="8.329738564789295">
        <ele>585.54999999999995</ele>
        <time>2021-10-24T09:27:13Z</time>
      </trkpt>
      <trkpt lat="46.255128895863891" lon="8.329728674143553">
        <ele>585.59000000000003</ele>
        <time>2021-10-24T09:27:14Z</time>
      </trkpt>
      <trkpt lat="46.255143145099282" lon="8.32970704883337">
        <ele>585.61000000000001</ele>
        <time>2021-10-24T09:27:16Z</time>
      </trkpt>
      <trkpt lat="46.255149766802788" lon="8.329696655273438">
        <ele>585.63</ele>
        <time>2021-10-24T09:27:17Z</time>
      </trkpt>
      <trkpt lat="46.255197543650866" lon="8.329617027193308">
        <ele>585.75</ele>
        <time>2021-10-24T09:27:25Z</time>
      </trkpt>
      <trkpt lat="46.255282033234835" lon="8.329491633921862">
        <ele>586.26999999999998</ele>
        <time>2021-10-24T09:27:38Z</time>
      </trkpt>
      <trkpt lat="46.255304245278239" lon="8.329439666122198">
        <ele>586.44000000000005</ele>
        <time>2021-10-24T09:27:42Z</time>
      </trkpt>
      <trkpt lat="46.255333833396435" lon="8.329365653917193">
        <ele>586.49000000000001</ele>
        <time>2021-10-24T09:27:48Z</time>
      </trkpt>
      <trkpt lat="46.255347244441509" lon="8.329348051920533">
        <ele>586.50999999999999</ele>
        <time>2021-10-24T09:27:50Z</time>
      </trkpt>
      <trkpt lat="46.255393931642175" lon="8.329238416627049">
        <ele>586.87</ele>
        <time>2021-10-24T09:27:59Z</time>
      </trkpt>
      <trkpt lat="46.255409438163042" lon="8.329126434400678">
        <ele>587.17999999999995</ele>
        <time>2021-10-24T09:28:08Z</time>
      </trkpt>
      <trkpt lat="46.255409773439169" lon="8.329100199043751">
        <ele>587.25999999999999</ele>
        <time>2021-10-24T09:28:10Z</time>
      </trkpt>
      <trkpt lat="46.255395356565714" lon="8.329019229859114">
        <ele>587.19000000000005</ele>
        <time>2021-10-24T09:28:17Z</time>
      </trkpt>
      <trkpt lat="46.255294186994433" lon="8.328888136893511">
        <ele>587.05999999999995</ele>
        <time>2021-10-24T09:28:31Z</time>
      </trkpt>
      <trkpt lat="46.255235178396106" lon="8.328817393630743">
        <ele>587.11000000000001</ele>
        <time>2021-10-24T09:28:39Z</time>
      </trkpt>
      <trkpt lat="46.255189245566726" lon="8.328772885724902">
        <ele>587.29999999999995</ele>
        <time>2021-10-24T09:28:48Z</time>
      </trkpt>
      <trkpt lat="46.255159741267562" lon="8.328755870461464">
        <ele>587.74000000000001</ele>
        <time>2021-10-24T09:28:55Z</time>
      </trkpt>
      <trkpt lat="46.255122944712639" lon="8.328701891005039">
        <ele>588.17999999999995</ele>
        <time>2021-10-24T09:29:03Z</time>
      </trkpt>
      <trkpt lat="46.255085058510303" lon="8.328638942912221">
        <ele>588.92999999999995</ele>
        <time>2021-10-24T09:29:10Z</time>
      </trkpt>
      <trkpt lat="46.255048597231507" lon="8.328556548804045">
        <ele>589.79999999999995</ele>
        <time>2021-10-24T09:29:19Z</time>
      </trkpt>
      <trkpt lat="46.255012219771743" lon="8.328489074483514">
        <ele>590.77999999999997</ele>
        <time>2021-10-24T09:29:27Z</time>
      </trkpt>
      <trkpt lat="46.25497592613101" lon="8.328402321785688">
        <ele>591.67999999999995</ele>
        <time>2021-10-24T09:29:36Z</time>
      </trkpt>
      <trkpt lat="46.254942649975419" lon="8.328340128064156">
        <ele>592.63999999999999</ele>
        <time>2021-10-24T09:29:44Z</time>
      </trkpt>
      <trkpt lat="46.2548918556422" lon="8.328256141394377">
        <ele>593.89999999999998</ele>
        <time>2021-10-24T09:29:55Z</time>
      </trkpt>
      <trkpt lat="46.254893196746707" lon="8.328217752277851">
        <ele>594.22000000000003</ele>
        <time>2021-10-24T09:29:58Z</time>
      </trkpt>
      <trkpt lat="46.254899818450212" lon="8.328193780034781">
        <ele>594.49000000000001</ele>
        <time>2021-10-24T09:30:00Z</time>
      </trkpt>
      <trkpt lat="46.254936028271914" lon="8.328135777264834">
        <ele>595.46000000000004</ele>
        <time>2021-10-24T09:30:08Z</time>
      </trkpt>
      <trkpt lat="46.254937453195453" lon="8.328083725646138">
        <ele>597.45000000000005</ele>
        <time>2021-10-24T09:30:17Z</time>
      </trkpt>
      <trkpt lat="46.254912726581097" lon="8.328037457540631">
        <ele>599.09000000000003</ele>
        <time>2021-10-24T09:30:24Z</time>
      </trkpt>
      <trkpt lat="46.254888921976089" lon="8.328016921877861">
        <ele>600.26999999999998</ele>
        <time>2021-10-24T09:30:30Z</time>
      </trkpt>
      <trkpt lat="46.254901578649879" lon="8.327978365123272">
        <ele>601.58000000000004</ele>
        <time>2021-10-24T09:30:36Z</time>
      </trkpt>
      <trkpt lat="46.254924377426505" lon="8.327927989885211">
        <ele>602.64999999999998</ele>
        <time>2021-10-24T09:30:45Z</time>
      </trkpt>
      <trkpt lat="46.254918677732348" lon="8.327906196936965">
        <ele>603.71000000000004</ele>
        <time>2021-10-24T09:30:54Z</time>
      </trkpt>
      <trkpt lat="46.254862351343036" lon="8.32788004539907">
        <ele>604.35000000000002</ele>
        <time>2021-10-24T09:31:00Z</time>
      </trkpt>
      <trkpt lat="46.254845168441534" lon="8.327833022922278">
        <ele>605.51999999999998</ele>
        <time>2021-10-24T09:31:06Z</time>
      </trkpt>
      <trkpt lat="46.254871739074588" lon="8.327819276601076">
        <ele>606.77999999999997</ele>
        <time>2021-10-24T09:31:13Z</time>
      </trkpt>
      <trkpt lat="46.254879450425506" lon="8.327817097306252">
        <ele>607.29999999999995</ele>
        <time>2021-10-24T09:31:23Z</time>
      </trkpt>
      <trkpt lat="46.254909290000796" lon="8.327801842242479">
        <ele>607.60000000000002</ele>
        <time>2021-10-24T09:31:32Z</time>
      </trkpt>
      <trkpt lat="46.254958994686604" lon="8.32782288081944">
        <ele>607.71000000000004</ele>
        <time>2021-10-24T09:31:39Z</time>
      </trkpt>
      <trkpt lat="46.254977099597454" lon="8.32782045006752">
        <ele>608.21000000000004</ele>
        <time>2021-10-24T09:31:47Z</time>
      </trkpt>
      <trkpt lat="46.254985481500626" lon="8.327816845849156">
        <ele>608.63</ele>
        <time>2021-10-24T09:32:00Z</time>
      </trkpt>
      <trkpt lat="46.255040382966399" lon="8.327822042629123">
        <ele>609.16999999999996</ele>
        <time>2021-10-24T09:32:08Z</time>
      </trkpt>
      <trkpt lat="46.255083885043859" lon="8.327827826142311">
        <ele>610.07000000000005</ele>
        <time>2021-10-24T09:32:16Z</time>
      </trkpt>
      <trkpt lat="46.255098469555378" lon="8.327827742323279">
        <ele>612.82000000000005</ele>
        <time>2021-10-24T09:32:29Z</time>
      </trkpt>
      <trkpt lat="46.255145240575075" lon="8.327835788950324">
        <ele>612.30999999999995</ele>
        <time>2021-10-24T09:32:35Z</time>
      </trkpt>
      <trkpt lat="46.255186563357711" lon="8.327828831970692">
        <ele>612.19000000000005</ele>
        <time>2021-10-24T09:32:42Z</time>
      </trkpt>
      <trkpt lat="46.2552475836128" lon="8.327826568856835">
        <ele>607.62</ele>
        <time>2021-10-24T09:32:50Z</time>
      </trkpt>
      <trkpt lat="46.255251355469227" lon="8.327832436189055">
        <ele>606.75999999999999</ele>
        <time>2021-10-24T09:32:52Z</time>
      </trkpt>
      <trkpt lat="46.25525152310729" lon="8.327839057892561">
        <ele>610.04999999999995</ele>
        <time>2021-10-24T09:32:55Z</time>
      </trkpt>
      <trkpt lat="46.255252193659544" lon="8.327841991558671">
        <ele>613.48000000000002</ele>
        <time>2021-10-24T09:33:00Z</time>
      </trkpt>
      <trkpt lat="46.255252445116639" lon="8.327842243015766">
        <ele>613.75999999999999</ele>
        <time>2021-10-24T09:33:01Z</time>
      </trkpt>
      <trkpt lat="46.255266778171062" lon="8.327834196388722">
        <ele>618</ele>
        <time>2021-10-24T09:33:04Z</time>
      </trkpt>
      <trkpt lat="46.255287732928991" lon="8.327833022922278">
        <ele>619.99000000000001</ele>
        <time>2021-10-24T09:33:07Z</time>
      </trkpt>
      <trkpt lat="46.255333665758371" lon="8.32783947698772">
        <ele>616.97000000000003</ele>
        <time>2021-10-24T09:33:13Z</time>
      </trkpt>
      <trkpt lat="46.255340622738004" lon="8.327844589948654">
        <ele>616.62</ele>
        <time>2021-10-24T09:33:14Z</time>
      </trkpt>
      <trkpt lat="46.255325451493263" lon="8.327892366796732">
        <ele>615.85000000000002</ele>
        <time>2021-10-24T09:33:20Z</time>
      </trkpt>
      <trkpt lat="46.25533064827323" lon="8.327900832518935">
        <ele>614.98000000000002</ele>
        <time>2021-10-24T09:33:34Z</time>
      </trkpt>
      <trkpt lat="46.255375826731324" lon="8.327874932438135">
        <ele>615.37</ele>
        <time>2021-10-24T09:33:41Z</time>
      </trkpt>
      <trkpt lat="46.255383873358369" lon="8.327869735658169">
        <ele>615.42999999999995</ele>
        <time>2021-10-24T09:33:42Z</time>
      </trkpt>
      <trkpt lat="46.255394769832492" lon="8.327863281592727">
        <ele>615.5</ele>
        <time>2021-10-24T09:33:43Z</time>
      </trkpt>
      <trkpt lat="46.255408264696598" lon="8.327857246622443">
        <ele>615.59000000000003</ele>
        <time>2021-10-24T09:33:44Z</time>
      </trkpt>
      <trkpt lat="46.255422178655863" lon="8.327849535271525">
        <ele>615.65999999999997</ele>
        <time>2021-10-24T09:33:45Z</time>
      </trkpt>
      <trkpt lat="46.255436763167381" lon="8.327839644625783">
        <ele>615.70000000000005</ele>
        <time>2021-10-24T09:33:46Z</time>
      </trkpt>
      <trkpt lat="46.255450844764709" lon="8.327834028750658">
        <ele>615.72000000000003</ele>
        <time>2021-10-24T09:33:47Z</time>
      </trkpt>
      <trkpt lat="46.255546733736992" lon="8.32784098573029">
        <ele>615.25999999999999</ele>
        <time>2021-10-24T09:33:55Z</time>
      </trkpt>
      <trkpt lat="46.255646897479892" lon="8.32784827798605">
        <ele>616.77999999999997</ele>
        <time>2021-10-24T09:34:03Z</time>
      </trkpt>
      <trkpt lat="46.255711521953344" lon="8.327873926609755">
        <ele>616.61000000000001</ele>
        <time>2021-10-24T09:34:08Z</time>
      </trkpt>
      <trkpt lat="46.255775727331638" lon="8.327861521393061">
        <ele>616.76999999999998</ele>
        <time>2021-10-24T09:34:15Z</time>
      </trkpt>
      <trkpt lat="46.255800370126963" lon="8.327831430360675">
        <ele>616.77999999999997</ele>
        <time>2021-10-24T09:34:21Z</time>
      </trkpt>
      <trkpt lat="46.255783522501588" lon="8.327805697917938">
        <ele>616.66999999999996</ele>
        <time>2021-10-24T09:34:28Z</time>
      </trkpt>
      <trkpt lat="46.255808919668198" lon="8.327806452289224">
        <ele>616.74000000000001</ele>
        <time>2021-10-24T09:34:32Z</time>
      </trkpt>
      <trkpt lat="46.255818558856845" lon="8.327813828364015">
        <ele>616.78999999999996</ele>
        <time>2021-10-24T09:34:33Z</time>
      </trkpt>
      <trkpt lat="46.255828449502587" lon="8.32782045006752">
        <ele>616.82000000000005</ele>
        <time>2021-10-24T09:34:34Z</time>
      </trkpt>
      <trkpt lat="46.255839681252837" lon="8.327823048457503">
        <ele>616.85000000000002</ele>
        <time>2021-10-24T09:34:35Z</time>
      </trkpt>
      <trkpt lat="46.255852673202753" lon="8.327823048457503">
        <ele>616.87</ele>
        <time>2021-10-24T09:34:36Z</time>
      </trkpt>
      <trkpt lat="46.255960799753666" lon="8.32782925106585">
        <ele>617.25</ele>
        <time>2021-10-24T09:34:45Z</time>
      </trkpt>
      <trkpt lat="46.256045373156667" lon="8.327825563028455">
        <ele>617.15999999999997</ele>
        <time>2021-10-24T09:34:53Z</time>
      </trkpt>
      <trkpt lat="46.256106896325946" lon="8.327844338491559">
        <ele>618.03999999999996</ele>
        <time>2021-10-24T09:35:00Z</time>
      </trkpt>
      <trkpt lat="46.25611737370491" lon="8.327847858890891">
        <ele>618.04999999999995</ele>
        <time>2021-10-24T09:35:02Z</time>
      </trkpt>
      <trkpt lat="46.256149476394057" lon="8.327859258279204">
        <ele>618.05999999999995</ele>
        <time>2021-10-24T09:35:05Z</time>
      </trkpt>
      <trkpt lat="46.256160456687212" lon="8.327862694859505">
        <ele>618.05999999999995</ele>
        <time>2021-10-24T09:35:06Z</time>
      </trkpt>
      <trkpt lat="46.25618233345449" lon="8.327865544706583">
        <ele>618.05999999999995</ele>
        <time>2021-10-24T09:35:08Z</time>
      </trkpt>
      <trkpt lat="46.256193062290549" lon="8.327863868325949">
        <ele>618.05999999999995</ele>
        <time>2021-10-24T09:35:09Z</time>
      </trkpt>
      <trkpt lat="46.25629817135632" lon="8.327869568020105">
        <ele>617.89999999999998</ele>
        <time>2021-10-24T09:35:19Z</time>
      </trkpt>
      <trkpt lat="46.256317533552647" lon="8.327874932438135">
        <ele>617.89999999999998</ele>
        <time>2021-10-24T09:35:21Z</time>
      </trkpt>
      <trkpt lat="46.25645256601274" lon="8.327868646010757">
        <ele>617.87</ele>
        <time>2021-10-24T09:35:34Z</time>
      </trkpt>
      <trkpt lat="46.256516268476844" lon="8.327897563576698">
        <ele>617.71000000000004</ele>
        <time>2021-10-24T09:35:41Z</time>
      </trkpt>
      <trkpt lat="46.256548538804054" lon="8.32792354747653">
        <ele>617.57000000000005</ele>
        <time>2021-10-24T09:35:48Z</time>
      </trkpt>
      <trkpt lat="46.256595561280847" lon="8.328007869422436">
        <ele>616.84000000000003</ele>
        <time>2021-10-24T09:35:57Z</time>
      </trkpt>
      <trkpt lat="46.256595896556973" lon="8.328049778938294">
        <ele>616.27999999999997</ele>
        <time>2021-10-24T09:36:02Z</time>
      </trkpt>
      <trkpt lat="46.256628418341279" lon="8.328117337077856">
        <ele>615.47000000000003</ele>
        <time>2021-10-24T09:36:09Z</time>
      </trkpt>
      <trkpt lat="46.256648786365986" lon="8.328197132796049">
        <ele>614.75</ele>
        <time>2021-10-24T09:36:19Z</time>
      </trkpt>
      <trkpt lat="46.256652139127254" lon="8.328210543841124">
        <ele>614.61000000000001</ele>
        <time>2021-10-24T09:36:20Z</time>
      </trkpt>
      <trkpt lat="46.256655072793365" lon="8.328225128352642">
        <ele>614.58000000000004</ele>
        <time>2021-10-24T09:36:21Z</time>
      </trkpt>
      <trkpt lat="46.256657671183348" lon="8.328240886330605">
        <ele>614.51999999999998</ele>
        <time>2021-10-24T09:36:22Z</time>
      </trkpt>
      <trkpt lat="46.256660269573331" lon="8.328256392851472">
        <ele>614.41999999999996</ele>
        <time>2021-10-24T09:36:23Z</time>
      </trkpt>
      <trkpt lat="46.256706537678838" lon="8.328443225473166">
        <ele>613.5</ele>
        <time>2021-10-24T09:36:35Z</time>
      </trkpt>
      <trkpt lat="46.256752973422408" lon="8.328611282631755">
        <ele>612.88</ele>
        <time>2021-10-24T09:36:46Z</time>
      </trkpt>
      <trkpt lat="46.256795134395361" lon="8.328769784420729">
        <ele>612.54999999999995</ele>
        <time>2021-10-24T09:36:57Z</time>
      </trkpt>
      <trkpt lat="46.256800834089518" lon="8.328811945393682">
        <ele>612.38999999999999</ele>
        <time>2021-10-24T09:37:03Z</time>
      </trkpt>
      <trkpt lat="46.25680292956531" lon="8.328839857131243">
        <ele>612.16999999999996</ele>
        <time>2021-10-24T09:37:12Z</time>
      </trkpt>
      <trkpt lat="46.256849365308881" lon="8.32897312939167">
        <ele>612.00999999999999</ele>
        <time>2021-10-24T09:37:24Z</time>
      </trkpt>
      <trkpt lat="46.256895549595356" lon="8.329112268984318">
        <ele>611.75</ele>
        <time>2021-10-24T09:37:36Z</time>
      </trkpt>
      <trkpt lat="46.256934944540262" lon="8.329227436333895">
        <ele>611.50999999999999</ele>
        <time>2021-10-24T09:37:46Z</time>
      </trkpt>
      <trkpt lat="46.25696905888617" lon="8.329332377761602">
        <ele>611.58000000000004</ele>
        <time>2021-10-24T09:37:56Z</time>
      </trkpt>
      <trkpt lat="46.256985990330577" lon="8.329385938122869">
        <ele>611.92999999999995</ele>
        <time>2021-10-24T09:38:05Z</time>
      </trkpt>
      <trkpt lat="46.25701155513525" lon="8.329398343339562">
        <ele>612.49000000000001</ele>
        <time>2021-10-24T09:38:39Z</time>
      </trkpt>
      <trkpt lat="46.257037874311209" lon="8.329429524019361">
        <ele>612.49000000000001</ele>
        <time>2021-10-24T09:38:47Z</time>
      </trkpt>
      <trkpt lat="46.257097134366632" lon="8.329495321959257">
        <ele>612.49000000000001</ele>
        <time>2021-10-24T09:38:57Z</time>
      </trkpt>
      <trkpt lat="46.257143653929234" lon="8.329555923119187">
        <ele>612.49000000000001</ele>
        <time>2021-10-24T09:39:06Z</time>
      </trkpt>
      <trkpt lat="46.257188832387328" lon="8.32962297834456">
        <ele>612.49000000000001</ele>
        <time>2021-10-24T09:39:15Z</time>
      </trkpt>
      <trkpt lat="46.257229568436742" lon="8.329711491242051">
        <ele>612.49000000000001</ele>
        <time>2021-10-24T09:39:25Z</time>
      </trkpt>
      <trkpt lat="46.257251696661115" lon="8.329785838723183">
        <ele>612.49000000000001</ele>
        <time>2021-10-24T09:39:32Z</time>
      </trkpt>
      <trkpt lat="46.257273154333234" lon="8.329868316650391">
        <ele>612.49000000000001</ele>
        <time>2021-10-24T09:39:40Z</time>
      </trkpt>
      <trkpt lat="46.257282877340913" lon="8.329956829547882">
        <ele>612.49000000000001</ele>
        <time>2021-10-24T09:39:48Z</time>
      </trkpt>
      <trkpt lat="46.257295869290829" lon="8.330051545053721">
        <ele>612.49000000000001</ele>
        <time>2021-10-24T09:39:58Z</time>
      </trkpt>
      <trkpt lat="46.257301652804017" lon="8.330138046294451">
        <ele>612.49000000000001</ele>
        <time>2021-10-24T09:40:08Z</time>
      </trkpt>
      <trkpt lat="46.257301736623049" lon="8.330147517845035">
        <ele>621.73000000000002</ele>
        <time>2021-10-24T09:40:09Z</time>
      </trkpt>
      <trkpt lat="46.257300898432732" lon="8.330157659947872">
        <ele>621.75999999999999</ele>
        <time>2021-10-24T09:40:10Z</time>
      </trkpt>
      <trkpt lat="46.257285643368959" lon="8.330220775678754">
        <ele>622.71000000000004</ele>
        <time>2021-10-24T09:40:18Z</time>
      </trkpt>
      <trkpt lat="46.257258066907525" lon="8.330314820632339">
        <ele>624.20000000000005</ele>
        <time>2021-10-24T09:40:29Z</time>
      </trkpt>
      <trkpt lat="46.257227892056108" lon="8.330465359613299">
        <ele>624.47000000000003</ele>
        <time>2021-10-24T09:40:44Z</time>
      </trkpt>
      <trkpt lat="46.257238369435072" lon="8.330598464235663">
        <ele>624.39999999999998</ele>
        <time>2021-10-24T09:40:55Z</time>
      </trkpt>
      <trkpt lat="46.257285475730896" lon="8.330768784508109">
        <ele>624.25</ele>
        <time>2021-10-24T09:41:10Z</time>
      </trkpt>
      <trkpt lat="46.257332498207688" lon="8.330917982384563">
        <ele>624.02999999999997</ele>
        <time>2021-10-24T09:41:23Z</time>
      </trkpt>
      <trkpt lat="46.257367953658104" lon="8.331042369827628">
        <ele>623.75999999999999</ele>
        <time>2021-10-24T09:41:34Z</time>
      </trkpt>
      <trkpt lat="46.257407097145915" lon="8.331177737563849">
        <ele>623.65999999999997</ele>
        <time>2021-10-24T09:41:46Z</time>
      </trkpt>
      <trkpt lat="46.257458226755261" lon="8.331330455839634">
        <ele>623.51999999999998</ele>
        <time>2021-10-24T09:42:00Z</time>
      </trkpt>
      <trkpt lat="46.25749628059566" lon="8.331450819969177">
        <ele>623.62</ele>
        <time>2021-10-24T09:42:11Z</time>
      </trkpt>
      <trkpt lat="46.257525449618697" lon="8.331553917378187">
        <ele>624.19000000000005</ele>
        <time>2021-10-24T09:42:21Z</time>
      </trkpt>
      <trkpt lat="46.257556043565273" lon="8.331654919311404">
        <ele>625.25</ele>
        <time>2021-10-24T09:42:32Z</time>
      </trkpt>
      <trkpt lat="46.25758278183639" lon="8.331730524078012">
        <ele>626.17999999999995</ele>
        <time>2021-10-24T09:42:41Z</time>
      </trkpt>
      <trkpt lat="46.257618237286806" lon="8.331832196563482">
        <ele>627.33000000000004</ele>
        <time>2021-10-24T09:42:52Z</time>
      </trkpt>
      <trkpt lat="46.257646987214684" lon="8.33191174082458">
        <ele>628.35000000000002</ele>
        <time>2021-10-24T09:43:02Z</time>
      </trkpt>
      <trkpt lat="46.257674563676119" lon="8.331992877647281">
        <ele>628.86000000000001</ele>
        <time>2021-10-24T09:43:12Z</time>
      </trkpt>
      <trkpt lat="46.257691495120525" lon="8.332051299512386">
        <ele>630.22000000000003</ele>
        <time>2021-10-24T09:43:20Z</time>
      </trkpt>
      <trkpt lat="46.257721586152911" lon="8.332145176827908">
        <ele>630.85000000000002</ele>
        <time>2021-10-24T09:43:30Z</time>
      </trkpt>
      <trkpt lat="46.257747570052743" lon="8.332228325307369">
        <ele>631.78999999999996</ele>
        <time>2021-10-24T09:43:39Z</time>
      </trkpt>
      <trkpt lat="46.257771123200655" lon="8.332304516807199">
        <ele>632.33000000000004</ele>
        <time>2021-10-24T09:43:47Z</time>
      </trkpt>
      <trkpt lat="46.257787467911839" lon="8.33236226812005">
        <ele>631.47000000000003</ele>
        <time>2021-10-24T09:43:56Z</time>
      </trkpt>
      <trkpt lat="46.257806578651071" lon="8.332434855401516">
        <ele>632.65999999999997</ele>
        <time>2021-10-24T09:44:05Z</time>
      </trkpt>
      <trkpt lat="46.257833819836378" lon="8.332527559250593">
        <ele>634.5</ele>
        <time>2021-10-24T09:44:13Z</time>
      </trkpt>
      <trkpt lat="46.257867263630033" lon="8.332627639174461">
        <ele>634.5</ele>
        <time>2021-10-24T09:44:21Z</time>
      </trkpt>
      <trkpt lat="46.25791403464973" lon="8.332689246162772">
        <ele>635.11000000000001</ele>
        <time>2021-10-24T09:44:30Z</time>
      </trkpt>
      <trkpt lat="46.257912190631032" lon="8.332692179828882">
        <ele>635.75</ele>
        <time>2021-10-24T09:44:54Z</time>
      </trkpt>
      <trkpt lat="46.257912442088127" lon="8.332706680521369">
        <ele>635.74000000000001</ele>
        <time>2021-10-24T09:45:04Z</time>
      </trkpt>
      <trkpt lat="46.257908921688795" lon="8.332711374387145">
        <ele>635.69000000000005</ele>
        <time>2021-10-24T09:45:15Z</time>
      </trkpt>
      <trkpt lat="46.257912022992969" lon="8.332733921706677">
        <ele>635.66999999999996</ele>
        <time>2021-10-24T09:45:19Z</time>
      </trkpt>
      <trkpt lat="46.257910598069429" lon="8.332746997475624">
        <ele>635.65999999999997</ele>
        <time>2021-10-24T09:45:20Z</time>
      </trkpt>
      <trkpt lat="46.257908586412668" lon="8.332763593643904">
        <ele>635.55999999999995</ele>
        <time>2021-10-24T09:45:21Z</time>
      </trkpt>
      <trkpt lat="46.2579086702317" lon="8.332779435440898">
        <ele>635.23000000000002</ele>
        <time>2021-10-24T09:45:22Z</time>
      </trkpt>
      <trkpt lat="46.257911771535873" lon="8.332795780152082">
        <ele>634.91999999999996</ele>
        <time>2021-10-24T09:45:23Z</time>
      </trkpt>
      <trkpt lat="46.257916297763586" lon="8.332811538130045">
        <ele>634.75</ele>
        <time>2021-10-24T09:45:24Z</time>
      </trkpt>
      <trkpt lat="46.257950495928526" lon="8.332953946664929">
        <ele>634.86000000000001</ele>
        <time>2021-10-24T09:45:34Z</time>
      </trkpt>
      <trkpt lat="46.258021574467421" lon="8.333148742094636">
        <ele>635.00999999999999</ele>
        <time>2021-10-24T09:45:47Z</time>
      </trkpt>
      <trkpt lat="46.258076978847384" lon="8.333276147022843">
        <ele>635.66999999999996</ele>
        <time>2021-10-24T09:45:57Z</time>
      </trkpt>
      <trkpt lat="46.258094580844045" lon="8.333315374329686">
        <ele>635.48000000000002</ele>
        <time>2021-10-24T09:46:00Z</time>
      </trkpt>
      <trkpt lat="46.25810069963336" lon="8.333330545574427">
        <ele>635.38</ele>
        <time>2021-10-24T09:46:01Z</time>
      </trkpt>
      <trkpt lat="46.258107153698802" lon="8.333345297724009">
        <ele>635.27999999999997</ele>
        <time>2021-10-24T09:46:02Z</time>
      </trkpt>
      <trkpt lat="46.258176136761904" lon="8.333486951887608">
        <ele>634.33000000000004</ele>
        <time>2021-10-24T09:46:12Z</time>
      </trkpt>
      <trkpt lat="46.258271271362901" lon="8.333647130057216">
        <ele>634.87</ele>
        <time>2021-10-24T09:46:25Z</time>
      </trkpt>
    </trkseg>
  </trk>

</gpx>